<?xml version="1.0" encoding="UTF-8" standalone="no" ?>
<gpx xmlns="http://www.topografix.com/GPX/1/1" xmlns:xsi="http://www.w3.org/2001/XMLSchema-instance" xsi:schemaLocation="http://www.topografix.com/GPX/1/1 http://www.topografix.com/GPX/1/1/gpx.xsd" version="1.1" creator="VisuGPX - https://www.visugpx.com">
  <metadata>
    <name>Boucle de Camplong à La Découverte en rive gauche du bassin minier</name>
  </metadata>
  <wpt lat="43.67845" lon="3.11468">
    <ele>316</ele>
    <name><![CDATA[Parking de la résidence Puits Durand à Camplong]]></name>
  </wpt>
  <wpt lat="43.67995" lon="3.11213">
    <ele>340</ele>
    <name><![CDATA[Chevalement du Puits Durand]]></name>
  </wpt>
  <wpt lat="43.6753" lon="3.1082">
    <ele>461</ele>
    <name><![CDATA[Bifurcation commune A/R]]></name>
  </wpt>
  <wpt lat="43.67612" lon="3.10821">
    <ele>463</ele>
    <name><![CDATA[Col des Padènes. Bifurcation commune A/R]]></name>
  </wpt>
  <wpt lat="43.6774" lon="3.10765">
    <ele>470</ele>
    <name><![CDATA[Clôture de la ferme de panneaux photovoltaïques]]></name>
  </wpt>
  <wpt lat="43.68254" lon="3.09905">
    <ele>513</ele>
    <name><![CDATA[Bifurcation. A/R cabane du berger ]]></name>
  </wpt>
  <wpt lat="43.68157" lon="3.10087">
    <ele>502</ele>
    <name><![CDATA[Point de vue]]></name>
  </wpt>
  <wpt lat="43.68296" lon="3.09848">
    <ele>521</ele>
    <name><![CDATA[Bifurcation, à gauche piste en descente ]]></name>
  </wpt>
  <wpt lat="43.68185" lon="3.09691">
    <ele>475</ele>
    <name><![CDATA[Source. Bifurcation, à gauche]]></name>
  </wpt>
  <wpt lat="43.67062" lon="3.11184">
    <ele>439</ele>
    <name><![CDATA[Transformateur]]></name>
  </wpt>
  <wpt lat="43.66991" lon="3.11263">
    <ele>442</ele>
    <name><![CDATA[Bifurcation. A/R vers chapelle ]]></name>
  </wpt>
  <wpt lat="43.66883" lon="3.11418">
    <ele>467</ele>
    <name><![CDATA[Chapelle Saint-Sauveur]]></name>
  </wpt>
  <wpt lat="43.67018" lon="3.11287">
    <ele>440</ele>
    <name><![CDATA[Croisement. GRP descendant vers Camplong]]></name>
  </wpt>
  <wpt lat="43.67242" lon="3.11847">
    <ele>327</ele>
    <name><![CDATA[D23E3. Épicerie - Café]]></name>
  </wpt>
  <wpt lat="43.67845" lon="3.11468">
    <ele>316</ele>
    <name><![CDATA[Parking de la résidence Puits Durand à Camplong]]></name>
  </wpt>
  <trk>
    <name><![CDATA[Boucle de Camplong à La Découverte en rive gauche du bassin minier]]></name>
    <trkseg>
      <trkpt lat="43.67845" lon="3.11468">
        <ele>316</ele>
        <time>2024-03-07T13:42:32+01:00</time>
      </trkpt>
      <trkpt lat="43.67847" lon="3.11488">
        <ele>319</ele>
        <time>2024-03-07T13:43:42+01:00</time>
      </trkpt>
      <trkpt lat="43.67856" lon="3.11485">
        <ele>319</ele>
        <time>2024-03-07T13:43:52+01:00</time>
      </trkpt>
      <trkpt lat="43.67865" lon="3.11472">
        <ele>318</ele>
        <time>2024-03-07T13:44:02+01:00</time>
      </trkpt>
      <trkpt lat="43.67875" lon="3.11461">
        <ele>318</ele>
        <time>2024-03-07T13:44:12+01:00</time>
      </trkpt>
      <trkpt lat="43.67874" lon="3.11446">
        <ele>317</ele>
        <time>2024-03-07T13:44:22+01:00</time>
      </trkpt>
      <trkpt lat="43.67862" lon="3.11429">
        <ele>315</ele>
        <time>2024-03-07T13:44:32+01:00</time>
      </trkpt>
      <trkpt lat="43.67857" lon="3.11412">
        <ele>313</ele>
        <time>2024-03-07T13:44:42+01:00</time>
      </trkpt>
      <trkpt lat="43.67858" lon="3.11394">
        <ele>312</ele>
        <time>2024-03-07T13:44:52+01:00</time>
      </trkpt>
      <trkpt lat="43.67849" lon="3.11384">
        <ele>312</ele>
        <time>2024-03-07T13:45:02+01:00</time>
      </trkpt>
      <trkpt lat="43.67843" lon="3.11371">
        <ele>312</ele>
        <time>2024-03-07T13:45:17+01:00</time>
      </trkpt>
      <trkpt lat="43.67843" lon="3.11371">
        <ele>312</ele>
        <time>2024-03-07T13:45:20+01:00</time>
      </trkpt>
      <trkpt lat="43.67852" lon="3.11358">
        <ele>314</ele>
        <time>2024-03-07T13:45:32+01:00</time>
      </trkpt>
      <trkpt lat="43.67862" lon="3.11348">
        <ele>316</ele>
        <time>2024-03-07T13:45:42+01:00</time>
      </trkpt>
      <trkpt lat="43.67869" lon="3.1134">
        <ele>317</ele>
        <time>2024-03-07T13:45:47+01:00</time>
      </trkpt>
      <trkpt lat="43.67881" lon="3.1133">
        <ele>319</ele>
        <time>2024-03-07T13:45:57+01:00</time>
      </trkpt>
      <trkpt lat="43.67893" lon="3.11323">
        <ele>319</ele>
        <time>2024-03-07T13:46:07+01:00</time>
      </trkpt>
      <trkpt lat="43.67904" lon="3.11312">
        <ele>320</ele>
        <time>2024-03-07T13:46:17+01:00</time>
      </trkpt>
      <trkpt lat="43.67913" lon="3.11304">
        <ele>320</ele>
        <time>2024-03-07T13:46:27+01:00</time>
      </trkpt>
      <trkpt lat="43.67923" lon="3.11294">
        <ele>322</ele>
        <time>2024-03-07T13:46:37+01:00</time>
      </trkpt>
      <trkpt lat="43.6793" lon="3.11286">
        <ele>323</ele>
        <time>2024-03-07T13:46:47+01:00</time>
      </trkpt>
      <trkpt lat="43.6794" lon="3.1128">
        <ele>322</ele>
        <time>2024-03-07T13:46:57+01:00</time>
      </trkpt>
      <trkpt lat="43.67952" lon="3.11271">
        <ele>324</ele>
        <time>2024-03-07T13:47:07+01:00</time>
      </trkpt>
      <trkpt lat="43.67962" lon="3.11265">
        <ele>326</ele>
        <time>2024-03-07T13:47:17+01:00</time>
      </trkpt>
      <trkpt lat="43.67974" lon="3.11259">
        <ele>327</ele>
        <time>2024-03-07T13:47:27+01:00</time>
      </trkpt>
      <trkpt lat="43.67983" lon="3.11254">
        <ele>328</ele>
        <time>2024-03-07T13:47:37+01:00</time>
      </trkpt>
      <trkpt lat="43.67992" lon="3.1125">
        <ele>329</ele>
        <time>2024-03-07T13:47:47+01:00</time>
      </trkpt>
      <trkpt lat="43.68005" lon="3.11247">
        <ele>329</ele>
        <time>2024-03-07T13:47:57+01:00</time>
      </trkpt>
      <trkpt lat="43.68016" lon="3.11247">
        <ele>329</ele>
        <time>2024-03-07T13:48:07+01:00</time>
      </trkpt>
      <trkpt lat="43.6803" lon="3.11244">
        <ele>329</ele>
        <time>2024-03-07T13:48:22+01:00</time>
      </trkpt>
      <trkpt lat="43.68042" lon="3.1124">
        <ele>330</ele>
        <time>2024-03-07T13:48:37+01:00</time>
      </trkpt>
      <trkpt lat="43.68051" lon="3.11242">
        <ele>330</ele>
        <time>2024-03-07T13:49:17+01:00</time>
      </trkpt>
      <trkpt lat="43.68066" lon="3.11237">
        <ele>330</ele>
        <time>2024-03-07T13:49:27+01:00</time>
      </trkpt>
      <trkpt lat="43.6806" lon="3.11224">
        <ele>333</ele>
        <time>2024-03-07T13:49:37+01:00</time>
      </trkpt>
      <trkpt lat="43.68049" lon="3.11222">
        <ele>333</ele>
        <time>2024-03-07T13:49:47+01:00</time>
      </trkpt>
      <trkpt lat="43.68036" lon="3.11224">
        <ele>333</ele>
        <time>2024-03-07T13:49:57+01:00</time>
      </trkpt>
      <trkpt lat="43.68025" lon="3.11223">
        <ele>334</ele>
        <time>2024-03-07T13:50:07+01:00</time>
      </trkpt>
      <trkpt lat="43.68012" lon="3.11225">
        <ele>335</ele>
        <time>2024-03-07T13:50:17+01:00</time>
      </trkpt>
      <trkpt lat="43.67999" lon="3.11224">
        <ele>338</ele>
        <time>2024-03-07T13:50:27+01:00</time>
      </trkpt>
      <trkpt lat="43.67986" lon="3.1122">
        <ele>340</ele>
        <time>2024-03-07T13:50:37+01:00</time>
      </trkpt>
      <trkpt lat="43.67995" lon="3.11213">
        <ele>340</ele>
        <time>2024-03-07T13:50:57+01:00</time>
      </trkpt>
      <trkpt lat="43.67983" lon="3.11223">
        <ele>340</ele>
        <time>2024-03-07T13:52:22+01:00</time>
      </trkpt>
      <trkpt lat="43.67972" lon="3.11226">
        <ele>339</ele>
        <time>2024-03-07T13:52:27+01:00</time>
      </trkpt>
      <trkpt lat="43.67961" lon="3.11232">
        <ele>339</ele>
        <time>2024-03-07T13:52:37+01:00</time>
      </trkpt>
      <trkpt lat="43.67949" lon="3.11235">
        <ele>339</ele>
        <time>2024-03-07T13:52:47+01:00</time>
      </trkpt>
      <trkpt lat="43.67938" lon="3.11242">
        <ele>339</ele>
        <time>2024-03-07T13:52:57+01:00</time>
      </trkpt>
      <trkpt lat="43.67926" lon="3.11249">
        <ele>338</ele>
        <time>2024-03-07T13:53:07+01:00</time>
      </trkpt>
      <trkpt lat="43.67915" lon="3.11258">
        <ele>336</ele>
        <time>2024-03-07T13:53:17+01:00</time>
      </trkpt>
      <trkpt lat="43.67904" lon="3.11265">
        <ele>335</ele>
        <time>2024-03-07T13:53:27+01:00</time>
      </trkpt>
      <trkpt lat="43.67893" lon="3.11268">
        <ele>337</ele>
        <time>2024-03-07T13:53:37+01:00</time>
      </trkpt>
      <trkpt lat="43.67883" lon="3.11268">
        <ele>340</ele>
        <time>2024-03-07T13:53:47+01:00</time>
      </trkpt>
      <trkpt lat="43.6787" lon="3.11268">
        <ele>343</ele>
        <time>2024-03-07T13:53:57+01:00</time>
      </trkpt>
      <trkpt lat="43.67857" lon="3.1127">
        <ele>347</ele>
        <time>2024-03-07T13:54:07+01:00</time>
      </trkpt>
      <trkpt lat="43.67844" lon="3.11271">
        <ele>349</ele>
        <time>2024-03-07T13:54:17+01:00</time>
      </trkpt>
      <trkpt lat="43.67832" lon="3.11274">
        <ele>351</ele>
        <time>2024-03-07T13:54:27+01:00</time>
      </trkpt>
      <trkpt lat="43.67819" lon="3.1128">
        <ele>352</ele>
        <time>2024-03-07T13:54:57+01:00</time>
      </trkpt>
      <trkpt lat="43.67811" lon="3.11292">
        <ele>351</ele>
        <time>2024-03-07T13:55:07+01:00</time>
      </trkpt>
      <trkpt lat="43.67803" lon="3.11302">
        <ele>350</ele>
        <time>2024-03-07T13:55:17+01:00</time>
      </trkpt>
      <trkpt lat="43.67792" lon="3.11311">
        <ele>350</ele>
        <time>2024-03-07T13:55:27+01:00</time>
      </trkpt>
      <trkpt lat="43.67781" lon="3.11318">
        <ele>351</ele>
        <time>2024-03-07T13:55:37+01:00</time>
      </trkpt>
      <trkpt lat="43.6777" lon="3.11327">
        <ele>351</ele>
        <time>2024-03-07T13:55:47+01:00</time>
      </trkpt>
      <trkpt lat="43.67758" lon="3.11335">
        <ele>352</ele>
        <time>2024-03-07T13:55:57+01:00</time>
      </trkpt>
      <trkpt lat="43.67748" lon="3.11343">
        <ele>353</ele>
        <time>2024-03-07T13:56:07+01:00</time>
      </trkpt>
      <trkpt lat="43.67735" lon="3.1135">
        <ele>355</ele>
        <time>2024-03-07T13:56:17+01:00</time>
      </trkpt>
      <trkpt lat="43.67726" lon="3.11356">
        <ele>356</ele>
        <time>2024-03-07T13:56:27+01:00</time>
      </trkpt>
      <trkpt lat="43.67715" lon="3.11363">
        <ele>357</ele>
        <time>2024-03-07T13:56:37+01:00</time>
      </trkpt>
      <trkpt lat="43.67704" lon="3.1137">
        <ele>358</ele>
        <time>2024-03-07T13:56:47+01:00</time>
      </trkpt>
      <trkpt lat="43.67693" lon="3.11378">
        <ele>358</ele>
        <time>2024-03-07T13:56:57+01:00</time>
      </trkpt>
      <trkpt lat="43.67682" lon="3.11382">
        <ele>360</ele>
        <time>2024-03-07T13:57:07+01:00</time>
      </trkpt>
      <trkpt lat="43.6767" lon="3.11391">
        <ele>361</ele>
        <time>2024-03-07T13:57:17+01:00</time>
      </trkpt>
      <trkpt lat="43.67659" lon="3.11398">
        <ele>361</ele>
        <time>2024-03-07T13:57:27+01:00</time>
      </trkpt>
      <trkpt lat="43.67649" lon="3.11403">
        <ele>362</ele>
        <time>2024-03-07T13:57:37+01:00</time>
      </trkpt>
      <trkpt lat="43.6764" lon="3.11412">
        <ele>363</ele>
        <time>2024-03-07T13:57:47+01:00</time>
      </trkpt>
      <trkpt lat="43.67629" lon="3.11423">
        <ele>362</ele>
        <time>2024-03-07T13:57:57+01:00</time>
      </trkpt>
      <trkpt lat="43.67617" lon="3.11427">
        <ele>364</ele>
        <time>2024-03-07T13:58:07+01:00</time>
      </trkpt>
      <trkpt lat="43.67611" lon="3.11415">
        <ele>368</ele>
        <time>2024-03-07T13:58:17+01:00</time>
      </trkpt>
      <trkpt lat="43.67616" lon="3.114">
        <ele>370</ele>
        <time>2024-03-07T13:58:27+01:00</time>
      </trkpt>
      <trkpt lat="43.67626" lon="3.11394">
        <ele>369</ele>
        <time>2024-03-07T13:58:37+01:00</time>
      </trkpt>
      <trkpt lat="43.67635" lon="3.11386">
        <ele>368</ele>
        <time>2024-03-07T13:58:47+01:00</time>
      </trkpt>
      <trkpt lat="43.67644" lon="3.11377">
        <ele>369</ele>
        <time>2024-03-07T13:59:02+01:00</time>
      </trkpt>
      <trkpt lat="43.67644" lon="3.11378">
        <ele>368</ele>
        <time>2024-03-07T13:59:21+01:00</time>
      </trkpt>
      <trkpt lat="43.67656" lon="3.11366">
        <ele>368</ele>
        <time>2024-03-07T13:59:32+01:00</time>
      </trkpt>
      <trkpt lat="43.67665" lon="3.11356">
        <ele>368</ele>
        <time>2024-03-07T13:59:42+01:00</time>
      </trkpt>
      <trkpt lat="43.67674" lon="3.11346">
        <ele>369</ele>
        <time>2024-03-07T13:59:52+01:00</time>
      </trkpt>
      <trkpt lat="43.67684" lon="3.11337">
        <ele>369</ele>
        <time>2024-03-07T14:00:02+01:00</time>
      </trkpt>
      <trkpt lat="43.67694" lon="3.11326">
        <ele>369</ele>
        <time>2024-03-07T14:00:12+01:00</time>
      </trkpt>
      <trkpt lat="43.677" lon="3.11315">
        <ele>371</ele>
        <time>2024-03-07T14:00:22+01:00</time>
      </trkpt>
      <trkpt lat="43.67703" lon="3.11307">
        <ele>372</ele>
        <time>2024-03-07T14:00:49+01:00</time>
      </trkpt>
      <trkpt lat="43.67706" lon="3.11304">
        <ele>372</ele>
        <time>2024-03-07T14:01:02+01:00</time>
      </trkpt>
      <trkpt lat="43.67709" lon="3.11299">
        <ele>373</ele>
        <time>2024-03-07T14:01:17+01:00</time>
      </trkpt>
      <trkpt lat="43.67711" lon="3.11294">
        <ele>374</ele>
        <time>2024-03-07T14:01:37+01:00</time>
      </trkpt>
      <trkpt lat="43.67715" lon="3.11288">
        <ele>375</ele>
        <time>2024-03-07T14:01:52+01:00</time>
      </trkpt>
      <trkpt lat="43.67721" lon="3.11287">
        <ele>375</ele>
        <time>2024-03-07T14:02:02+01:00</time>
      </trkpt>
      <trkpt lat="43.67725" lon="3.1128">
        <ele>376</ele>
        <time>2024-03-07T14:02:12+01:00</time>
      </trkpt>
      <trkpt lat="43.6773" lon="3.11275">
        <ele>376</ele>
        <time>2024-03-07T14:02:27+01:00</time>
      </trkpt>
      <trkpt lat="43.67734" lon="3.11269">
        <ele>377</ele>
        <time>2024-03-07T14:02:47+01:00</time>
      </trkpt>
      <trkpt lat="43.67738" lon="3.11265">
        <ele>377</ele>
        <time>2024-03-07T14:03:12+01:00</time>
      </trkpt>
      <trkpt lat="43.67743" lon="3.11258">
        <ele>378</ele>
        <time>2024-03-07T14:03:27+01:00</time>
      </trkpt>
      <trkpt lat="43.67749" lon="3.11252">
        <ele>379</ele>
        <time>2024-03-07T14:03:47+01:00</time>
      </trkpt>
      <trkpt lat="43.67756" lon="3.11243">
        <ele>380</ele>
        <time>2024-03-07T14:04:02+01:00</time>
      </trkpt>
      <trkpt lat="43.67766" lon="3.11236">
        <ele>381</ele>
        <time>2024-03-07T14:04:17+01:00</time>
      </trkpt>
      <trkpt lat="43.67772" lon="3.1123">
        <ele>381</ele>
        <time>2024-03-07T14:04:32+01:00</time>
      </trkpt>
      <trkpt lat="43.67781" lon="3.11218">
        <ele>383</ele>
        <time>2024-03-07T14:04:52+01:00</time>
      </trkpt>
      <trkpt lat="43.67791" lon="3.11206">
        <ele>385</ele>
        <time>2024-03-07T14:05:00+01:00</time>
      </trkpt>
      <trkpt lat="43.67799" lon="3.11198">
        <ele>386</ele>
        <time>2024-03-07T14:05:17+01:00</time>
      </trkpt>
      <trkpt lat="43.67809" lon="3.11189">
        <ele>387</ele>
        <time>2024-03-07T14:05:27+01:00</time>
      </trkpt>
      <trkpt lat="43.67817" lon="3.11183">
        <ele>387</ele>
        <time>2024-03-07T14:05:37+01:00</time>
      </trkpt>
      <trkpt lat="43.67827" lon="3.11174">
        <ele>389</ele>
        <time>2024-03-07T14:06:02+01:00</time>
      </trkpt>
      <trkpt lat="43.67843" lon="3.11157">
        <ele>391</ele>
        <time>2024-03-07T14:06:17+01:00</time>
      </trkpt>
      <trkpt lat="43.67867" lon="3.11142">
        <ele>392</ele>
        <time>2024-03-07T14:06:27+01:00</time>
      </trkpt>
      <trkpt lat="43.67882" lon="3.11128">
        <ele>395</ele>
        <time>2024-03-07T14:06:42+01:00</time>
      </trkpt>
      <trkpt lat="43.67903" lon="3.11109">
        <ele>398</ele>
        <time>2024-03-07T14:06:52+01:00</time>
      </trkpt>
      <trkpt lat="43.67911" lon="3.11089">
        <ele>402</ele>
        <time>2024-03-07T14:07:07+01:00</time>
      </trkpt>
      <trkpt lat="43.67922" lon="3.11062">
        <ele>403</ele>
        <time>2024-03-07T14:07:17+01:00</time>
      </trkpt>
      <trkpt lat="43.67935" lon="3.11038">
        <ele>402</ele>
        <time>2024-03-07T14:07:32+01:00</time>
      </trkpt>
      <trkpt lat="43.6795" lon="3.11009">
        <ele>400</ele>
        <time>2024-03-07T14:07:47+01:00</time>
      </trkpt>
      <trkpt lat="43.67973" lon="3.10993">
        <ele>395</ele>
        <time>2024-03-07T14:08:13+01:00</time>
      </trkpt>
      <trkpt lat="43.67994" lon="3.10986">
        <ele>399</ele>
        <time>2024-03-07T14:08:22+01:00</time>
      </trkpt>
      <trkpt lat="43.68027" lon="3.10982">
        <ele>406</ele>
        <time>2024-03-07T14:08:32+01:00</time>
      </trkpt>
      <trkpt lat="43.68058" lon="3.10972">
        <ele>413</ele>
        <time>2024-03-07T14:08:47+01:00</time>
      </trkpt>
      <trkpt lat="43.68048" lon="3.10958">
        <ele>416</ele>
        <time>2024-03-07T14:09:02+01:00</time>
      </trkpt>
      <trkpt lat="43.68027" lon="3.10944">
        <ele>419</ele>
        <time>2024-03-07T14:09:17+01:00</time>
      </trkpt>
      <trkpt lat="43.68007" lon="3.10939">
        <ele>416</ele>
        <time>2024-03-07T14:09:32+01:00</time>
      </trkpt>
      <trkpt lat="43.67999" lon="3.10928">
        <ele>419</ele>
        <time>2024-03-07T14:09:47+01:00</time>
      </trkpt>
      <trkpt lat="43.67985" lon="3.10914">
        <ele>422</ele>
        <time>2024-03-07T14:10:27+01:00</time>
      </trkpt>
      <trkpt lat="43.67974" lon="3.1091">
        <ele>421</ele>
        <time>2024-03-07T14:10:42+01:00</time>
      </trkpt>
      <trkpt lat="43.67962" lon="3.10899">
        <ele>425</ele>
      </trkpt>
      <trkpt lat="43.67949" lon="3.10889">
        <ele>427</ele>
      </trkpt>
      <trkpt lat="43.67939" lon="3.10881">
        <ele>428</ele>
      </trkpt>
      <trkpt lat="43.67926" lon="3.1087">
        <ele>430</ele>
      </trkpt>
      <trkpt lat="43.67911" lon="3.1087">
        <ele>431</ele>
      </trkpt>
      <trkpt lat="43.67895" lon="3.10873">
        <ele>435</ele>
      </trkpt>
      <trkpt lat="43.67883" lon="3.10898">
        <ele>435</ele>
      </trkpt>
      <trkpt lat="43.6787" lon="3.10912">
        <ele>437</ele>
      </trkpt>
      <trkpt lat="43.67854" lon="3.10927">
        <ele>438</ele>
      </trkpt>
      <trkpt lat="43.67835" lon="3.10936">
        <ele>437</ele>
      </trkpt>
      <trkpt lat="43.67818" lon="3.10927">
        <ele>439</ele>
      </trkpt>
      <trkpt lat="43.67787" lon="3.10918">
        <ele>441</ele>
        <time>2024-03-07T14:10:52+01:00</time>
      </trkpt>
      <trkpt lat="43.678" lon="3.10922">
        <ele>440</ele>
        <time>2024-03-07T14:11:47+01:00</time>
      </trkpt>
      <trkpt lat="43.67777" lon="3.10911">
        <ele>442</ele>
        <time>2024-03-07T14:12:02+01:00</time>
      </trkpt>
      <trkpt lat="43.67768" lon="3.10908">
        <ele>443</ele>
        <time>2024-03-07T14:12:12+01:00</time>
      </trkpt>
      <trkpt lat="43.67754" lon="3.10904">
        <ele>444</ele>
        <time>2024-03-07T14:12:27+01:00</time>
      </trkpt>
      <trkpt lat="43.67741" lon="3.10906">
        <ele>445</ele>
        <time>2024-03-07T14:12:37+01:00</time>
      </trkpt>
      <trkpt lat="43.67731" lon="3.1091">
        <ele>445</ele>
        <time>2024-03-07T14:12:47+01:00</time>
      </trkpt>
      <trkpt lat="43.67719" lon="3.10914">
        <ele>446</ele>
        <time>2024-03-07T14:12:57+01:00</time>
      </trkpt>
      <trkpt lat="43.67708" lon="3.10918">
        <ele>447</ele>
        <time>2024-03-07T14:13:07+01:00</time>
      </trkpt>
      <trkpt lat="43.67695" lon="3.10921">
        <ele>448</ele>
        <time>2024-03-07T14:13:17+01:00</time>
      </trkpt>
      <trkpt lat="43.67684" lon="3.10925">
        <ele>449</ele>
        <time>2024-03-07T14:13:27+01:00</time>
      </trkpt>
      <trkpt lat="43.67674" lon="3.10927">
        <ele>450</ele>
        <time>2024-03-07T14:13:37+01:00</time>
      </trkpt>
      <trkpt lat="43.67662" lon="3.10927">
        <ele>451</ele>
        <time>2024-03-07T14:13:47+01:00</time>
      </trkpt>
      <trkpt lat="43.67656" lon="3.10931">
        <ele>451</ele>
        <time>2024-03-07T14:14:04+01:00</time>
      </trkpt>
      <trkpt lat="43.67651" lon="3.10927">
        <ele>452</ele>
        <time>2024-03-07T14:14:22+01:00</time>
      </trkpt>
      <trkpt lat="43.67642" lon="3.10924">
        <ele>452</ele>
        <time>2024-03-07T14:14:32+01:00</time>
      </trkpt>
      <trkpt lat="43.67637" lon="3.1092">
        <ele>452</ele>
        <time>2024-03-07T14:14:42+01:00</time>
      </trkpt>
      <trkpt lat="43.67632" lon="3.10916">
        <ele>452</ele>
        <time>2024-03-07T14:14:52+01:00</time>
      </trkpt>
      <trkpt lat="43.67627" lon="3.10913">
        <ele>452</ele>
        <time>2024-03-07T14:15:02+01:00</time>
      </trkpt>
      <trkpt lat="43.67622" lon="3.10914">
        <ele>451</ele>
        <time>2024-03-07T14:15:28+01:00</time>
      </trkpt>
      <trkpt lat="43.67617" lon="3.1091">
        <ele>451</ele>
        <time>2024-03-07T14:15:42+01:00</time>
      </trkpt>
      <trkpt lat="43.67611" lon="3.10902">
        <ele>452</ele>
        <time>2024-03-07T14:16:27+01:00</time>
      </trkpt>
      <trkpt lat="43.67606" lon="3.10897">
        <ele>452</ele>
        <time>2024-03-07T14:16:52+01:00</time>
      </trkpt>
      <trkpt lat="43.67601" lon="3.10891">
        <ele>452</ele>
        <time>2024-03-07T14:17:07+01:00</time>
      </trkpt>
      <trkpt lat="43.67593" lon="3.10886">
        <ele>452</ele>
        <time>2024-03-07T14:17:22+01:00</time>
      </trkpt>
      <trkpt lat="43.67587" lon="3.1088">
        <ele>452</ele>
        <time>2024-03-07T14:17:47+01:00</time>
      </trkpt>
      <trkpt lat="43.6758" lon="3.10872">
        <ele>453</ele>
        <time>2024-03-07T14:18:02+01:00</time>
      </trkpt>
      <trkpt lat="43.67574" lon="3.10867">
        <ele>454</ele>
        <time>2024-03-07T14:18:12+01:00</time>
      </trkpt>
      <trkpt lat="43.67567" lon="3.10864">
        <ele>454</ele>
        <time>2024-03-07T14:18:22+01:00</time>
      </trkpt>
      <trkpt lat="43.67559" lon="3.10856">
        <ele>455</ele>
        <time>2024-03-07T14:18:37+01:00</time>
      </trkpt>
      <trkpt lat="43.67551" lon="3.10853">
        <ele>455</ele>
        <time>2024-03-07T14:18:47+01:00</time>
      </trkpt>
      <trkpt lat="43.6754" lon="3.10847">
        <ele>456</ele>
        <time>2024-03-07T14:19:02+01:00</time>
      </trkpt>
      <trkpt lat="43.67534" lon="3.10844">
        <ele>457</ele>
        <time>2024-03-07T14:19:22+01:00</time>
      </trkpt>
      <trkpt lat="43.67528" lon="3.10838">
        <ele>458</ele>
        <time>2024-03-07T14:20:08+01:00</time>
      </trkpt>
      <trkpt lat="43.67522" lon="3.10829">
        <ele>459</ele>
        <time>2024-03-07T14:31:47+01:00</time>
      </trkpt>
      <trkpt lat="43.6753" lon="3.1082">
        <ele>461</ele>
        <time>2024-03-07T14:31:57+01:00</time>
      </trkpt>
      <trkpt lat="43.67543" lon="3.10822">
        <ele>461</ele>
        <time>2024-03-07T14:32:12+01:00</time>
      </trkpt>
      <trkpt lat="43.67553" lon="3.10826">
        <ele>461</ele>
        <time>2024-03-07T14:32:22+01:00</time>
      </trkpt>
      <trkpt lat="43.67553" lon="3.10826">
        <ele>461</ele>
        <time>2024-03-07T14:32:24+01:00</time>
      </trkpt>
      <trkpt lat="43.67562" lon="3.10829">
        <ele>460</ele>
        <time>2024-03-07T14:32:32+01:00</time>
      </trkpt>
      <trkpt lat="43.67572" lon="3.10831">
        <ele>460</ele>
        <time>2024-03-07T14:32:42+01:00</time>
      </trkpt>
      <trkpt lat="43.67583" lon="3.10833">
        <ele>460</ele>
        <time>2024-03-07T14:32:52+01:00</time>
      </trkpt>
      <trkpt lat="43.67592" lon="3.1083">
        <ele>461</ele>
        <time>2024-03-07T14:33:02+01:00</time>
      </trkpt>
      <trkpt lat="43.67604" lon="3.10825">
        <ele>462</ele>
        <time>2024-03-07T14:33:12+01:00</time>
      </trkpt>
      <trkpt lat="43.67612" lon="3.10821">
        <ele>463</ele>
        <time>2024-03-07T14:33:22+01:00</time>
      </trkpt>
      <trkpt lat="43.67622" lon="3.10821">
        <ele>464</ele>
        <time>2024-03-07T14:33:32+01:00</time>
      </trkpt>
      <trkpt lat="43.67631" lon="3.10818">
        <ele>466</ele>
        <time>2024-03-07T14:33:42+01:00</time>
      </trkpt>
      <trkpt lat="43.67641" lon="3.10817">
        <ele>467</ele>
        <time>2024-03-07T14:33:52+01:00</time>
      </trkpt>
      <trkpt lat="43.67652" lon="3.10813">
        <ele>469</ele>
        <time>2024-03-07T14:34:02+01:00</time>
      </trkpt>
      <trkpt lat="43.67656" lon="3.10809">
        <ele>470</ele>
        <time>2024-03-07T14:34:10+01:00</time>
      </trkpt>
      <trkpt lat="43.6766" lon="3.10805">
        <ele>471</ele>
        <time>2024-03-07T14:34:12+01:00</time>
      </trkpt>
      <trkpt lat="43.6767" lon="3.10799">
        <ele>473</ele>
        <time>2024-03-07T14:34:22+01:00</time>
      </trkpt>
      <trkpt lat="43.6768" lon="3.10792">
        <ele>474</ele>
        <time>2024-03-07T14:34:32+01:00</time>
      </trkpt>
      <trkpt lat="43.6769" lon="3.1079">
        <ele>474</ele>
        <time>2024-03-07T14:34:42+01:00</time>
      </trkpt>
      <trkpt lat="43.67702" lon="3.10784">
        <ele>474</ele>
        <time>2024-03-07T14:34:52+01:00</time>
      </trkpt>
      <trkpt lat="43.6771" lon="3.10776">
        <ele>474</ele>
        <time>2024-03-07T14:35:02+01:00</time>
      </trkpt>
      <trkpt lat="43.6772" lon="3.10767">
        <ele>474</ele>
        <time>2024-03-07T14:35:12+01:00</time>
      </trkpt>
      <trkpt lat="43.67729" lon="3.10764">
        <ele>472</ele>
        <time>2024-03-07T14:35:22+01:00</time>
      </trkpt>
      <trkpt lat="43.6774" lon="3.10765">
        <ele>470</ele>
        <time>2024-03-07T14:35:32+01:00</time>
      </trkpt>
      <trkpt lat="43.67751" lon="3.10767">
        <ele>467</ele>
        <time>2024-03-07T14:35:42+01:00</time>
      </trkpt>
      <trkpt lat="43.67761" lon="3.10765">
        <ele>466</ele>
        <time>2024-03-07T14:35:52+01:00</time>
      </trkpt>
      <trkpt lat="43.67773" lon="3.1076">
        <ele>465</ele>
        <time>2024-03-07T14:36:02+01:00</time>
      </trkpt>
      <trkpt lat="43.67784" lon="3.10754">
        <ele>465</ele>
        <time>2024-03-07T14:36:12+01:00</time>
      </trkpt>
      <trkpt lat="43.67793" lon="3.10746">
        <ele>465</ele>
        <time>2024-03-07T14:36:22+01:00</time>
      </trkpt>
      <trkpt lat="43.67802" lon="3.10736">
        <ele>465</ele>
        <time>2024-03-07T14:36:32+01:00</time>
      </trkpt>
      <trkpt lat="43.67809" lon="3.10727">
        <ele>466</ele>
        <time>2024-03-07T14:36:42+01:00</time>
      </trkpt>
      <trkpt lat="43.67818" lon="3.10719">
        <ele>466</ele>
        <time>2024-03-07T14:36:52+01:00</time>
      </trkpt>
      <trkpt lat="43.67827" lon="3.10712">
        <ele>467</ele>
        <time>2024-03-07T14:37:02+01:00</time>
      </trkpt>
      <trkpt lat="43.67838" lon="3.10704">
        <ele>468</ele>
        <time>2024-03-07T14:37:12+01:00</time>
      </trkpt>
      <trkpt lat="43.67848" lon="3.10693">
        <ele>470</ele>
        <time>2024-03-07T14:37:22+01:00</time>
      </trkpt>
      <trkpt lat="43.67854" lon="3.10679">
        <ele>472</ele>
        <time>2024-03-07T14:37:32+01:00</time>
      </trkpt>
      <trkpt lat="43.67864" lon="3.1067">
        <ele>474</ele>
        <time>2024-03-07T14:37:42+01:00</time>
      </trkpt>
      <trkpt lat="43.67873" lon="3.10664">
        <ele>476</ele>
        <time>2024-03-07T14:37:52+01:00</time>
      </trkpt>
      <trkpt lat="43.67887" lon="3.10662">
        <ele>478</ele>
        <time>2024-03-07T14:39:17+01:00</time>
      </trkpt>
      <trkpt lat="43.67899" lon="3.10659">
        <ele>480</ele>
        <time>2024-03-07T14:39:27+01:00</time>
      </trkpt>
      <trkpt lat="43.67909" lon="3.1066">
        <ele>481</ele>
        <time>2024-03-07T14:39:37+01:00</time>
      </trkpt>
      <trkpt lat="43.67921" lon="3.10658">
        <ele>483</ele>
        <time>2024-03-07T14:39:47+01:00</time>
      </trkpt>
      <trkpt lat="43.67932" lon="3.10657">
        <ele>485</ele>
        <time>2024-03-07T14:39:57+01:00</time>
      </trkpt>
      <trkpt lat="43.67943" lon="3.10661">
        <ele>486</ele>
        <time>2024-03-07T14:40:07+01:00</time>
      </trkpt>
      <trkpt lat="43.67946" lon="3.10675">
        <ele>483</ele>
        <time>2024-03-07T14:40:17+01:00</time>
      </trkpt>
      <trkpt lat="43.67952" lon="3.10688">
        <ele>481</ele>
        <time>2024-03-07T14:40:27+01:00</time>
      </trkpt>
      <trkpt lat="43.67961" lon="3.10702">
        <ele>479</ele>
        <time>2024-03-07T14:40:37+01:00</time>
      </trkpt>
      <trkpt lat="43.67971" lon="3.10711">
        <ele>478</ele>
        <time>2024-03-07T14:40:47+01:00</time>
      </trkpt>
      <trkpt lat="43.6798" lon="3.10721">
        <ele>477</ele>
        <time>2024-03-07T14:40:57+01:00</time>
      </trkpt>
      <trkpt lat="43.6799" lon="3.1073">
        <ele>476</ele>
        <time>2024-03-07T14:41:07+01:00</time>
      </trkpt>
      <trkpt lat="43.67997" lon="3.10741">
        <ele>475</ele>
        <time>2024-03-07T14:41:22+01:00</time>
      </trkpt>
      <trkpt lat="43.68004" lon="3.10749">
        <ele>474</ele>
        <time>2024-03-07T14:41:32+01:00</time>
      </trkpt>
      <trkpt lat="43.68015" lon="3.10756">
        <ele>475</ele>
        <time>2024-03-07T14:41:42+01:00</time>
      </trkpt>
      <trkpt lat="43.68025" lon="3.10763">
        <ele>476</ele>
        <time>2024-03-07T14:41:52+01:00</time>
      </trkpt>
      <trkpt lat="43.68036" lon="3.1077">
        <ele>476</ele>
        <time>2024-03-07T14:42:02+01:00</time>
      </trkpt>
      <trkpt lat="43.68045" lon="3.10775">
        <ele>477</ele>
        <time>2024-03-07T14:42:12+01:00</time>
      </trkpt>
      <trkpt lat="43.68059" lon="3.10777">
        <ele>478</ele>
        <time>2024-03-07T14:42:22+01:00</time>
      </trkpt>
      <trkpt lat="43.68071" lon="3.10776">
        <ele>480</ele>
        <time>2024-03-07T14:42:32+01:00</time>
      </trkpt>
      <trkpt lat="43.68083" lon="3.10773">
        <ele>482</ele>
        <time>2024-03-07T14:42:42+01:00</time>
      </trkpt>
      <trkpt lat="43.68093" lon="3.10765">
        <ele>485</ele>
        <time>2024-03-07T14:42:52+01:00</time>
      </trkpt>
      <trkpt lat="43.68106" lon="3.1076">
        <ele>486</ele>
        <time>2024-03-07T14:43:02+01:00</time>
      </trkpt>
      <trkpt lat="43.6812" lon="3.10754">
        <ele>488</ele>
        <time>2024-03-07T14:43:12+01:00</time>
      </trkpt>
      <trkpt lat="43.68132" lon="3.10747">
        <ele>490</ele>
        <time>2024-03-07T14:43:22+01:00</time>
      </trkpt>
      <trkpt lat="43.68143" lon="3.10739">
        <ele>492</ele>
        <time>2024-03-07T14:43:32+01:00</time>
      </trkpt>
      <trkpt lat="43.6815" lon="3.10736">
        <ele>491</ele>
        <time>2024-03-07T14:44:10+01:00</time>
      </trkpt>
      <trkpt lat="43.68152" lon="3.10732">
        <ele>492</ele>
        <time>2024-03-07T14:44:17+01:00</time>
      </trkpt>
      <trkpt lat="43.68161" lon="3.10718">
        <ele>494</ele>
        <time>2024-03-07T14:44:32+01:00</time>
      </trkpt>
      <trkpt lat="43.68167" lon="3.10706">
        <ele>496</ele>
        <time>2024-03-07T14:44:42+01:00</time>
      </trkpt>
      <trkpt lat="43.68175" lon="3.10697">
        <ele>497</ele>
        <time>2024-03-07T14:44:52+01:00</time>
      </trkpt>
      <trkpt lat="43.68182" lon="3.10685">
        <ele>499</ele>
        <time>2024-03-07T14:45:02+01:00</time>
      </trkpt>
      <trkpt lat="43.68189" lon="3.10675">
        <ele>500</ele>
        <time>2024-03-07T14:45:12+01:00</time>
      </trkpt>
      <trkpt lat="43.68197" lon="3.10663">
        <ele>501</ele>
        <time>2024-03-07T14:45:22+01:00</time>
      </trkpt>
      <trkpt lat="43.68206" lon="3.10652">
        <ele>502</ele>
        <time>2024-03-07T14:45:32+01:00</time>
      </trkpt>
      <trkpt lat="43.68214" lon="3.10642">
        <ele>503</ele>
        <time>2024-03-07T14:45:42+01:00</time>
      </trkpt>
      <trkpt lat="43.68221" lon="3.10631">
        <ele>505</ele>
        <time>2024-03-07T14:45:52+01:00</time>
      </trkpt>
      <trkpt lat="43.68228" lon="3.10623">
        <ele>506</ele>
        <time>2024-03-07T14:46:02+01:00</time>
      </trkpt>
      <trkpt lat="43.68236" lon="3.1061">
        <ele>508</ele>
        <time>2024-03-07T14:46:12+01:00</time>
      </trkpt>
      <trkpt lat="43.68244" lon="3.10601">
        <ele>509</ele>
        <time>2024-03-07T14:46:22+01:00</time>
      </trkpt>
      <trkpt lat="43.6825" lon="3.1059">
        <ele>511</ele>
        <time>2024-03-07T14:46:32+01:00</time>
      </trkpt>
      <trkpt lat="43.68261" lon="3.10578">
        <ele>512</ele>
        <time>2024-03-07T14:46:42+01:00</time>
      </trkpt>
      <trkpt lat="43.68271" lon="3.10568">
        <ele>512</ele>
        <time>2024-03-07T14:46:52+01:00</time>
      </trkpt>
      <trkpt lat="43.68275" lon="3.10556">
        <ele>513</ele>
        <time>2024-03-07T14:47:02+01:00</time>
      </trkpt>
      <trkpt lat="43.68274" lon="3.10536">
        <ele>519</ele>
        <time>2024-03-07T14:47:17+01:00</time>
      </trkpt>
      <trkpt lat="43.68276" lon="3.10522">
        <ele>521</ele>
        <time>2024-03-07T14:47:27+01:00</time>
      </trkpt>
      <trkpt lat="43.68278" lon="3.10507">
        <ele>522</ele>
        <time>2024-03-07T14:47:37+01:00</time>
      </trkpt>
      <trkpt lat="43.68279" lon="3.10491">
        <ele>523</ele>
        <time>2024-03-07T14:47:52+01:00</time>
      </trkpt>
      <trkpt lat="43.68284" lon="3.10479">
        <ele>523</ele>
        <time>2024-03-07T14:48:02+01:00</time>
      </trkpt>
      <trkpt lat="43.68285" lon="3.10465">
        <ele>524</ele>
        <time>2024-03-07T14:48:17+01:00</time>
      </trkpt>
      <trkpt lat="43.68287" lon="3.10452">
        <ele>525</ele>
        <time>2024-03-07T14:48:27+01:00</time>
      </trkpt>
      <trkpt lat="43.68292" lon="3.10436">
        <ele>525</ele>
        <time>2024-03-07T14:48:42+01:00</time>
      </trkpt>
      <trkpt lat="43.68291" lon="3.10435">
        <ele>525</ele>
        <time>2024-03-07T14:48:52+01:00</time>
      </trkpt>
      <trkpt lat="43.68294" lon="3.10431">
        <ele>524</ele>
        <time>2024-03-07T14:49:43+01:00</time>
      </trkpt>
      <trkpt lat="43.68297" lon="3.1042">
        <ele>524</ele>
        <time>2024-03-07T14:49:57+01:00</time>
      </trkpt>
      <trkpt lat="43.68299" lon="3.10413">
        <ele>524</ele>
        <time>2024-03-07T14:50:07+01:00</time>
      </trkpt>
      <trkpt lat="43.68303" lon="3.10411">
        <ele>524</ele>
        <time>2024-03-07T14:50:17+01:00</time>
      </trkpt>
      <trkpt lat="43.68304" lon="3.10406">
        <ele>524</ele>
        <time>2024-03-07T14:50:27+01:00</time>
      </trkpt>
      <trkpt lat="43.68308" lon="3.10401">
        <ele>524</ele>
        <time>2024-03-07T14:50:37+01:00</time>
      </trkpt>
      <trkpt lat="43.68309" lon="3.10395">
        <ele>524</ele>
        <time>2024-03-07T14:50:57+01:00</time>
      </trkpt>
      <trkpt lat="43.68312" lon="3.10391">
        <ele>524</ele>
        <time>2024-03-07T14:51:27+01:00</time>
      </trkpt>
      <trkpt lat="43.68314" lon="3.10387">
        <ele>524</ele>
        <time>2024-03-07T14:52:57+01:00</time>
      </trkpt>
      <trkpt lat="43.68316" lon="3.10384">
        <ele>524</ele>
        <time>2024-03-07T14:53:53+01:00</time>
      </trkpt>
      <trkpt lat="43.68318" lon="3.10379">
        <ele>524</ele>
        <time>2024-03-07T14:55:17+01:00</time>
      </trkpt>
      <trkpt lat="43.68319" lon="3.10375">
        <ele>524</ele>
        <time>2024-03-07T14:55:37+01:00</time>
      </trkpt>
      <trkpt lat="43.68319" lon="3.1037">
        <ele>524</ele>
        <time>2024-03-07T14:55:52+01:00</time>
      </trkpt>
      <trkpt lat="43.68321" lon="3.10366">
        <ele>525</ele>
        <time>2024-03-07T14:56:07+01:00</time>
      </trkpt>
      <trkpt lat="43.68322" lon="3.10361">
        <ele>525</ele>
        <time>2024-03-07T14:56:32+01:00</time>
      </trkpt>
      <trkpt lat="43.68324" lon="3.10358">
        <ele>525</ele>
        <time>2024-03-07T14:56:42+01:00</time>
      </trkpt>
      <trkpt lat="43.68325" lon="3.10353">
        <ele>525</ele>
        <time>2024-03-07T14:56:52+01:00</time>
      </trkpt>
      <trkpt lat="43.68327" lon="3.10344">
        <ele>526</ele>
        <time>2024-03-07T14:57:02+01:00</time>
      </trkpt>
      <trkpt lat="43.68327" lon="3.10331">
        <ele>526</ele>
        <time>2024-03-07T14:57:12+01:00</time>
      </trkpt>
      <trkpt lat="43.6833" lon="3.10318">
        <ele>527</ele>
        <time>2024-03-07T14:57:22+01:00</time>
      </trkpt>
      <trkpt lat="43.6833" lon="3.10302">
        <ele>528</ele>
        <time>2024-03-07T14:57:32+01:00</time>
      </trkpt>
      <trkpt lat="43.6833" lon="3.10287">
        <ele>528</ele>
        <time>2024-03-07T14:57:42+01:00</time>
      </trkpt>
      <trkpt lat="43.6833" lon="3.10271">
        <ele>528</ele>
        <time>2024-03-07T14:57:52+01:00</time>
      </trkpt>
      <trkpt lat="43.68325" lon="3.10257">
        <ele>525</ele>
        <time>2024-03-07T14:58:57+01:00</time>
      </trkpt>
      <trkpt lat="43.68325" lon="3.10244">
        <ele>524</ele>
        <time>2024-03-07T14:59:07+01:00</time>
      </trkpt>
      <trkpt lat="43.68326" lon="3.10228">
        <ele>522</ele>
        <time>2024-03-07T14:59:17+01:00</time>
      </trkpt>
      <trkpt lat="43.68326" lon="3.10208">
        <ele>521</ele>
        <time>2024-03-07T14:59:47+01:00</time>
      </trkpt>
      <trkpt lat="43.68323" lon="3.10196">
        <ele>518</ele>
        <time>2024-03-07T14:59:57+01:00</time>
      </trkpt>
      <trkpt lat="43.68324" lon="3.10178">
        <ele>519</ele>
        <time>2024-03-07T15:00:12+01:00</time>
      </trkpt>
      <trkpt lat="43.6832" lon="3.10159">
        <ele>517</ele>
        <time>2024-03-07T15:00:22+01:00</time>
      </trkpt>
      <trkpt lat="43.68319" lon="3.10141">
        <ele>516</ele>
        <time>2024-03-07T15:00:32+01:00</time>
      </trkpt>
      <trkpt lat="43.68318" lon="3.10125">
        <ele>515</ele>
        <time>2024-03-07T15:00:42+01:00</time>
      </trkpt>
      <trkpt lat="43.68313" lon="3.10107">
        <ele>512</ele>
        <time>2024-03-07T15:01:27+01:00</time>
      </trkpt>
      <trkpt lat="43.68311" lon="3.10089">
        <ele>512</ele>
        <time>2024-03-07T15:01:37+01:00</time>
      </trkpt>
      <trkpt lat="43.68307" lon="3.1007">
        <ele>512</ele>
        <time>2024-03-07T15:01:47+01:00</time>
      </trkpt>
      <trkpt lat="43.68304" lon="3.10053">
        <ele>512</ele>
        <time>2024-03-07T15:01:57+01:00</time>
      </trkpt>
      <trkpt lat="43.683" lon="3.10038">
        <ele>512</ele>
        <time>2024-03-07T15:02:07+01:00</time>
      </trkpt>
      <trkpt lat="43.68293" lon="3.10029">
        <ele>510</ele>
        <time>2024-03-07T15:02:22+01:00</time>
      </trkpt>
      <trkpt lat="43.68295" lon="3.10015">
        <ele>512</ele>
        <time>2024-03-07T15:02:47+01:00</time>
      </trkpt>
      <trkpt lat="43.6829" lon="3.09999">
        <ele>512</ele>
        <time>2024-03-07T15:02:57+01:00</time>
      </trkpt>
      <trkpt lat="43.68286" lon="3.09984">
        <ele>512</ele>
        <time>2024-03-07T15:03:07+01:00</time>
      </trkpt>
      <trkpt lat="43.68285" lon="3.09964">
        <ele>514</ele>
        <time>2024-03-07T15:03:17+01:00</time>
      </trkpt>
      <trkpt lat="43.6828" lon="3.09948">
        <ele>515</ele>
        <time>2024-03-07T15:03:27+01:00</time>
      </trkpt>
      <trkpt lat="43.68274" lon="3.09934">
        <ele>515</ele>
        <time>2024-03-07T15:03:37+01:00</time>
      </trkpt>
      <trkpt lat="43.68269" lon="3.0992">
        <ele>516</ele>
        <time>2024-03-07T15:03:47+01:00</time>
      </trkpt>
      <trkpt lat="43.68261" lon="3.09909">
        <ele>514</ele>
        <time>2024-03-07T15:03:57+01:00</time>
      </trkpt>
      <trkpt lat="43.68254" lon="3.09905">
        <ele>513</ele>
        <time>2024-03-07T15:04:39+01:00</time>
      </trkpt>
      <trkpt lat="43.68251" lon="3.09918">
        <ele>512</ele>
        <time>2024-03-07T15:04:52+01:00</time>
      </trkpt>
      <trkpt lat="43.68246" lon="3.09933">
        <ele>510</ele>
        <time>2024-03-07T15:05:02+01:00</time>
      </trkpt>
      <trkpt lat="43.68241" lon="3.09948">
        <ele>509</ele>
        <time>2024-03-07T15:05:12+01:00</time>
      </trkpt>
      <trkpt lat="43.68235" lon="3.09961">
        <ele>508</ele>
        <time>2024-03-07T15:05:22+01:00</time>
      </trkpt>
      <trkpt lat="43.6823" lon="3.09975">
        <ele>509</ele>
        <time>2024-03-07T15:05:32+01:00</time>
      </trkpt>
      <trkpt lat="43.68224" lon="3.09992">
        <ele>511</ele>
        <time>2024-03-07T15:05:42+01:00</time>
      </trkpt>
      <trkpt lat="43.68216" lon="3.10006">
        <ele>514</ele>
        <time>2024-03-07T15:05:52+01:00</time>
      </trkpt>
      <trkpt lat="43.68214" lon="3.10007">
        <ele>514</ele>
        <time>2024-03-07T15:06:22+01:00</time>
      </trkpt>
      <trkpt lat="43.68207" lon="3.10011">
        <ele>514</ele>
        <time>2024-03-07T15:06:27+01:00</time>
      </trkpt>
      <trkpt lat="43.68198" lon="3.1002">
        <ele>516</ele>
        <time>2024-03-07T15:06:37+01:00</time>
      </trkpt>
      <trkpt lat="43.68187" lon="3.10028">
        <ele>516</ele>
        <time>2024-03-07T15:06:47+01:00</time>
      </trkpt>
      <trkpt lat="43.68178" lon="3.10034">
        <ele>514</ele>
        <time>2024-03-07T15:06:57+01:00</time>
      </trkpt>
      <trkpt lat="43.68169" lon="3.10043">
        <ele>513</ele>
        <time>2024-03-07T15:07:07+01:00</time>
      </trkpt>
      <trkpt lat="43.68159" lon="3.10054">
        <ele>510</ele>
        <time>2024-03-07T15:07:17+01:00</time>
      </trkpt>
      <trkpt lat="43.68149" lon="3.10061">
        <ele>505</ele>
        <time>2024-03-07T15:07:27+01:00</time>
      </trkpt>
      <trkpt lat="43.68155" lon="3.10073">
        <ele>505</ele>
        <time>2024-03-07T15:07:52+01:00</time>
      </trkpt>
      <trkpt lat="43.68157" lon="3.10087">
        <ele>502</ele>
        <time>2024-03-07T15:08:07+01:00</time>
      </trkpt>
      <trkpt lat="43.68156" lon="3.10088">
        <ele>502</ele>
        <time>2024-03-07T15:09:30+01:00</time>
      </trkpt>
      <trkpt lat="43.68155" lon="3.10069">
        <ele>506</ele>
        <time>2024-03-07T15:09:52+01:00</time>
      </trkpt>
      <trkpt lat="43.68159" lon="3.10057">
        <ele>509</ele>
        <time>2024-03-07T15:10:02+01:00</time>
      </trkpt>
      <trkpt lat="43.68165" lon="3.10046">
        <ele>511</ele>
        <time>2024-03-07T15:10:12+01:00</time>
      </trkpt>
      <trkpt lat="43.68174" lon="3.10037">
        <ele>514</ele>
        <time>2024-03-07T15:10:22+01:00</time>
      </trkpt>
      <trkpt lat="43.68185" lon="3.1003">
        <ele>515</ele>
        <time>2024-03-07T15:10:32+01:00</time>
      </trkpt>
      <trkpt lat="43.68197" lon="3.10023">
        <ele>516</ele>
        <time>2024-03-07T15:10:42+01:00</time>
      </trkpt>
      <trkpt lat="43.68206" lon="3.10016">
        <ele>515</ele>
        <time>2024-03-07T15:10:52+01:00</time>
      </trkpt>
      <trkpt lat="43.68216" lon="3.10004">
        <ele>514</ele>
        <time>2024-03-07T15:11:02+01:00</time>
      </trkpt>
      <trkpt lat="43.68225" lon="3.0999">
        <ele>511</ele>
        <time>2024-03-07T15:11:12+01:00</time>
      </trkpt>
      <trkpt lat="43.68232" lon="3.09974">
        <ele>509</ele>
        <time>2024-03-07T15:11:22+01:00</time>
      </trkpt>
      <trkpt lat="43.68237" lon="3.09959">
        <ele>509</ele>
        <time>2024-03-07T15:11:32+01:00</time>
      </trkpt>
      <trkpt lat="43.68242" lon="3.09944">
        <ele>509</ele>
        <time>2024-03-07T15:11:42+01:00</time>
      </trkpt>
      <trkpt lat="43.68247" lon="3.0993">
        <ele>510</ele>
        <time>2024-03-07T15:11:52+01:00</time>
      </trkpt>
      <trkpt lat="43.68253" lon="3.09914">
        <ele>513</ele>
        <time>2024-03-07T15:12:02+01:00</time>
      </trkpt>
      <trkpt lat="43.68259" lon="3.09899">
        <ele>514</ele>
        <time>2024-03-07T15:12:12+01:00</time>
      </trkpt>
      <trkpt lat="43.68263" lon="3.09884">
        <ele>515</ele>
        <time>2024-03-07T15:12:22+01:00</time>
      </trkpt>
      <trkpt lat="43.68269" lon="3.09869">
        <ele>516</ele>
        <time>2024-03-07T15:12:32+01:00</time>
      </trkpt>
      <trkpt lat="43.68281" lon="3.09858">
        <ele>519</ele>
        <time>2024-03-07T15:12:42+01:00</time>
      </trkpt>
      <trkpt lat="43.68291" lon="3.09852">
        <ele>520</ele>
        <time>2024-03-07T15:12:52+01:00</time>
      </trkpt>
      <trkpt lat="43.68296" lon="3.09848">
        <ele>521</ele>
        <time>2024-03-07T15:13:18+01:00</time>
      </trkpt>
      <trkpt lat="43.68296" lon="3.09836">
        <ele>521</ele>
        <time>2024-03-07T15:13:27+01:00</time>
      </trkpt>
      <trkpt lat="43.68287" lon="3.09818">
        <ele>518</ele>
        <time>2024-03-07T15:13:42+01:00</time>
      </trkpt>
      <trkpt lat="43.68276" lon="3.09812">
        <ele>515</ele>
        <time>2024-03-07T15:13:52+01:00</time>
      </trkpt>
      <trkpt lat="43.68265" lon="3.09814">
        <ele>513</ele>
        <time>2024-03-07T15:14:02+01:00</time>
      </trkpt>
      <trkpt lat="43.68255" lon="3.09829">
        <ele>512</ele>
        <time>2024-03-07T15:14:12+01:00</time>
      </trkpt>
      <trkpt lat="43.68249" lon="3.09842">
        <ele>511</ele>
        <time>2024-03-07T15:14:22+01:00</time>
      </trkpt>
      <trkpt lat="43.68242" lon="3.09857">
        <ele>509</ele>
        <time>2024-03-07T15:14:32+01:00</time>
      </trkpt>
      <trkpt lat="43.68237" lon="3.09873">
        <ele>508</ele>
        <time>2024-03-07T15:14:42+01:00</time>
      </trkpt>
      <trkpt lat="43.68231" lon="3.09888">
        <ele>506</ele>
        <time>2024-03-07T15:14:52+01:00</time>
      </trkpt>
      <trkpt lat="43.68225" lon="3.09906">
        <ele>505</ele>
        <time>2024-03-07T15:15:02+01:00</time>
      </trkpt>
      <trkpt lat="43.68221" lon="3.09922">
        <ele>505</ele>
        <time>2024-03-07T15:15:12+01:00</time>
      </trkpt>
      <trkpt lat="43.68214" lon="3.09937">
        <ele>504</ele>
        <time>2024-03-07T15:15:22+01:00</time>
      </trkpt>
      <trkpt lat="43.68206" lon="3.09945">
        <ele>503</ele>
        <time>2024-03-07T15:16:02+01:00</time>
      </trkpt>
      <trkpt lat="43.68199" lon="3.09959">
        <ele>504</ele>
        <time>2024-03-07T15:16:32+01:00</time>
      </trkpt>
      <trkpt lat="43.68189" lon="3.09966">
        <ele>503</ele>
        <time>2024-03-07T15:16:42+01:00</time>
      </trkpt>
      <trkpt lat="43.68183" lon="3.09975">
        <ele>503</ele>
        <time>2024-03-07T15:17:02+01:00</time>
      </trkpt>
      <trkpt lat="43.68172" lon="3.09983">
        <ele>502</ele>
        <time>2024-03-07T15:17:12+01:00</time>
      </trkpt>
      <trkpt lat="43.68162" lon="3.09992">
        <ele>502</ele>
        <time>2024-03-07T15:17:22+01:00</time>
      </trkpt>
      <trkpt lat="43.68152" lon="3.09999">
        <ele>502</ele>
        <time>2024-03-07T15:17:32+01:00</time>
      </trkpt>
      <trkpt lat="43.68142" lon="3.10005">
        <ele>500</ele>
        <time>2024-03-07T15:17:42+01:00</time>
      </trkpt>
      <trkpt lat="43.68131" lon="3.1001">
        <ele>499</ele>
        <time>2024-03-07T15:18:02+01:00</time>
      </trkpt>
      <trkpt lat="43.6812" lon="3.10015">
        <ele>499</ele>
        <time>2024-03-07T15:18:27+01:00</time>
      </trkpt>
      <trkpt lat="43.6811" lon="3.10017">
        <ele>497</ele>
        <time>2024-03-07T15:18:37+01:00</time>
      </trkpt>
      <trkpt lat="43.68097" lon="3.10017">
        <ele>494</ele>
        <time>2024-03-07T15:18:47+01:00</time>
      </trkpt>
      <trkpt lat="43.68087" lon="3.10016">
        <ele>491</ele>
        <time>2024-03-07T15:18:57+01:00</time>
      </trkpt>
      <trkpt lat="43.68077" lon="3.1002">
        <ele>489</ele>
        <time>2024-03-07T15:19:07+01:00</time>
      </trkpt>
      <trkpt lat="43.68066" lon="3.10023">
        <ele>486</ele>
        <time>2024-03-07T15:19:17+01:00</time>
      </trkpt>
      <trkpt lat="43.68055" lon="3.10027">
        <ele>484</ele>
        <time>2024-03-07T15:19:27+01:00</time>
      </trkpt>
      <trkpt lat="43.68045" lon="3.10033">
        <ele>478</ele>
        <time>2024-03-07T15:19:42+01:00</time>
      </trkpt>
      <trkpt lat="43.68048" lon="3.10018">
        <ele>480</ele>
        <time>2024-03-07T15:20:57+01:00</time>
      </trkpt>
      <trkpt lat="43.68053" lon="3.10014">
        <ele>481</ele>
        <time>2024-03-07T15:21:30+01:00</time>
      </trkpt>
      <trkpt lat="43.68058" lon="3.1001">
        <ele>482</ele>
        <time>2024-03-07T15:21:37+01:00</time>
      </trkpt>
      <trkpt lat="43.68067" lon="3.10006">
        <ele>484</ele>
        <time>2024-03-07T15:21:47+01:00</time>
      </trkpt>
      <trkpt lat="43.68076" lon="3.10002">
        <ele>485</ele>
        <time>2024-03-07T15:21:57+01:00</time>
      </trkpt>
      <trkpt lat="43.68088" lon="3.09997">
        <ele>486</ele>
        <time>2024-03-07T15:22:07+01:00</time>
      </trkpt>
      <trkpt lat="43.68102" lon="3.09992">
        <ele>488</ele>
        <time>2024-03-07T15:22:17+01:00</time>
      </trkpt>
      <trkpt lat="43.68113" lon="3.09986">
        <ele>488</ele>
        <time>2024-03-07T15:22:27+01:00</time>
      </trkpt>
      <trkpt lat="43.68123" lon="3.09978">
        <ele>487</ele>
        <time>2024-03-07T15:22:37+01:00</time>
      </trkpt>
      <trkpt lat="43.68135" lon="3.09969">
        <ele>488</ele>
        <time>2024-03-07T15:22:47+01:00</time>
      </trkpt>
      <trkpt lat="43.68143" lon="3.09958">
        <ele>486</ele>
        <time>2024-03-07T15:22:57+01:00</time>
      </trkpt>
      <trkpt lat="43.68152" lon="3.09947">
        <ele>485</ele>
        <time>2024-03-07T15:23:07+01:00</time>
      </trkpt>
      <trkpt lat="43.6816" lon="3.09936">
        <ele>485</ele>
        <time>2024-03-07T15:23:17+01:00</time>
      </trkpt>
      <trkpt lat="43.6817" lon="3.09924">
        <ele>485</ele>
        <time>2024-03-07T15:23:27+01:00</time>
      </trkpt>
      <trkpt lat="43.68179" lon="3.09912">
        <ele>487</ele>
        <time>2024-03-07T15:23:37+01:00</time>
      </trkpt>
      <trkpt lat="43.68183" lon="3.09893">
        <ele>486</ele>
        <time>2024-03-07T15:23:47+01:00</time>
      </trkpt>
      <trkpt lat="43.68183" lon="3.09877">
        <ele>483</ele>
        <time>2024-03-07T15:23:57+01:00</time>
      </trkpt>
      <trkpt lat="43.68183" lon="3.09862">
        <ele>482</ele>
        <time>2024-03-07T15:24:07+01:00</time>
      </trkpt>
      <trkpt lat="43.68182" lon="3.09837">
        <ele>479</ele>
        <time>2024-03-07T15:24:17+01:00</time>
      </trkpt>
      <trkpt lat="43.68179" lon="3.09816">
        <ele>476</ele>
        <time>2024-03-07T15:24:27+01:00</time>
      </trkpt>
      <trkpt lat="43.68176" lon="3.09797">
        <ele>474</ele>
        <time>2024-03-07T15:24:37+01:00</time>
      </trkpt>
      <trkpt lat="43.68175" lon="3.09783">
        <ele>473</ele>
        <time>2024-03-07T15:24:47+01:00</time>
      </trkpt>
      <trkpt lat="43.68175" lon="3.09766">
        <ele>474</ele>
        <time>2024-03-07T15:24:57+01:00</time>
      </trkpt>
      <trkpt lat="43.68177" lon="3.09753">
        <ele>475</ele>
        <time>2024-03-07T15:25:37+01:00</time>
      </trkpt>
      <trkpt lat="43.68177" lon="3.09736">
        <ele>475</ele>
        <time>2024-03-07T15:25:47+01:00</time>
      </trkpt>
      <trkpt lat="43.68178" lon="3.0972">
        <ele>475</ele>
        <time>2024-03-07T15:25:57+01:00</time>
      </trkpt>
      <trkpt lat="43.68181" lon="3.09703">
        <ele>475</ele>
        <time>2024-03-07T15:26:07+01:00</time>
      </trkpt>
      <trkpt lat="43.68185" lon="3.09691">
        <ele>475</ele>
        <time>2024-03-07T15:26:17+01:00</time>
      </trkpt>
      <trkpt lat="43.68185" lon="3.0969">
        <ele>475</ele>
        <time>2024-03-07T15:26:41+01:00</time>
      </trkpt>
      <trkpt lat="43.68174" lon="3.0969">
        <ele>472</ele>
        <time>2024-03-07T15:26:52+01:00</time>
      </trkpt>
      <trkpt lat="43.68169" lon="3.09707">
        <ele>472</ele>
        <time>2024-03-07T15:27:02+01:00</time>
      </trkpt>
      <trkpt lat="43.68165" lon="3.09722">
        <ele>471</ele>
        <time>2024-03-07T15:27:12+01:00</time>
      </trkpt>
      <trkpt lat="43.68163" lon="3.09739">
        <ele>469</ele>
        <time>2024-03-07T15:27:22+01:00</time>
      </trkpt>
      <trkpt lat="43.6816" lon="3.09755">
        <ele>466</ele>
        <time>2024-03-07T15:27:32+01:00</time>
      </trkpt>
      <trkpt lat="43.68159" lon="3.09774">
        <ele>465</ele>
        <time>2024-03-07T15:27:42+01:00</time>
      </trkpt>
      <trkpt lat="43.68162" lon="3.09794">
        <ele>466</ele>
        <time>2024-03-07T15:27:52+01:00</time>
      </trkpt>
      <trkpt lat="43.68161" lon="3.09807">
        <ele>465</ele>
        <time>2024-03-07T15:27:57+01:00</time>
      </trkpt>
      <trkpt lat="43.68162" lon="3.09823">
        <ele>466</ele>
        <time>2024-03-07T15:28:07+01:00</time>
      </trkpt>
      <trkpt lat="43.68163" lon="3.09842">
        <ele>468</ele>
        <time>2024-03-07T15:28:17+01:00</time>
      </trkpt>
      <trkpt lat="43.6816" lon="3.09861">
        <ele>468</ele>
        <time>2024-03-07T15:28:27+01:00</time>
      </trkpt>
      <trkpt lat="43.68158" lon="3.0988">
        <ele>470</ele>
        <time>2024-03-07T15:28:37+01:00</time>
      </trkpt>
      <trkpt lat="43.6815" lon="3.09891">
        <ele>470</ele>
        <time>2024-03-07T15:29:02+01:00</time>
      </trkpt>
      <trkpt lat="43.68138" lon="3.09895">
        <ele>466</ele>
        <time>2024-03-07T15:29:12+01:00</time>
      </trkpt>
      <trkpt lat="43.68126" lon="3.09899">
        <ele>464</ele>
        <time>2024-03-07T15:29:22+01:00</time>
      </trkpt>
      <trkpt lat="43.68117" lon="3.09912">
        <ele>465</ele>
        <time>2024-03-07T15:29:32+01:00</time>
      </trkpt>
      <trkpt lat="43.68103" lon="3.09923">
        <ele>464</ele>
        <time>2024-03-07T15:29:42+01:00</time>
      </trkpt>
      <trkpt lat="43.68092" lon="3.0993">
        <ele>464</ele>
        <time>2024-03-07T15:29:52+01:00</time>
      </trkpt>
      <trkpt lat="43.68079" lon="3.09936">
        <ele>463</ele>
        <time>2024-03-07T15:30:02+01:00</time>
      </trkpt>
      <trkpt lat="43.68069" lon="3.09936">
        <ele>461</ele>
        <time>2024-03-07T15:30:12+01:00</time>
      </trkpt>
      <trkpt lat="43.68055" lon="3.09937">
        <ele>458</ele>
        <time>2024-03-07T15:30:27+01:00</time>
      </trkpt>
      <trkpt lat="43.68046" lon="3.09939">
        <ele>457</ele>
        <time>2024-03-07T15:30:37+01:00</time>
      </trkpt>
      <trkpt lat="43.68035" lon="3.09942">
        <ele>456</ele>
        <time>2024-03-07T15:30:47+01:00</time>
      </trkpt>
      <trkpt lat="43.68022" lon="3.09948">
        <ele>456</ele>
        <time>2024-03-07T15:30:57+01:00</time>
      </trkpt>
      <trkpt lat="43.68009" lon="3.09951">
        <ele>455</ele>
        <time>2024-03-07T15:31:07+01:00</time>
      </trkpt>
      <trkpt lat="43.67994" lon="3.09951">
        <ele>452</ele>
        <time>2024-03-07T15:31:17+01:00</time>
      </trkpt>
      <trkpt lat="43.67979" lon="3.09951">
        <ele>450</ele>
        <time>2024-03-07T15:31:27+01:00</time>
      </trkpt>
      <trkpt lat="43.67967" lon="3.09953">
        <ele>448</ele>
        <time>2024-03-07T15:31:37+01:00</time>
      </trkpt>
      <trkpt lat="43.67954" lon="3.09955">
        <ele>446</ele>
        <time>2024-03-07T15:31:47+01:00</time>
      </trkpt>
      <trkpt lat="43.6794" lon="3.0996">
        <ele>444</ele>
        <time>2024-03-07T15:31:57+01:00</time>
      </trkpt>
      <trkpt lat="43.6793" lon="3.09968">
        <ele>443</ele>
        <time>2024-03-07T15:32:07+01:00</time>
      </trkpt>
      <trkpt lat="43.67921" lon="3.09976">
        <ele>441</ele>
        <time>2024-03-07T15:32:17+01:00</time>
      </trkpt>
      <trkpt lat="43.67913" lon="3.09985">
        <ele>439</ele>
        <time>2024-03-07T15:32:27+01:00</time>
      </trkpt>
      <trkpt lat="43.67906" lon="3.09999">
        <ele>437</ele>
        <time>2024-03-07T15:32:37+01:00</time>
      </trkpt>
      <trkpt lat="43.67901" lon="3.10012">
        <ele>435</ele>
        <time>2024-03-07T15:33:02+01:00</time>
      </trkpt>
      <trkpt lat="43.67896" lon="3.10024">
        <ele>433</ele>
        <time>2024-03-07T15:33:17+01:00</time>
      </trkpt>
      <trkpt lat="43.67887" lon="3.10038">
        <ele>434</ele>
        <time>2024-03-07T15:34:07+01:00</time>
      </trkpt>
      <trkpt lat="43.67883" lon="3.10052">
        <ele>434</ele>
        <time>2024-03-07T15:34:17+01:00</time>
      </trkpt>
      <trkpt lat="43.67884" lon="3.10066">
        <ele>437</ele>
        <time>2024-03-07T15:34:57+01:00</time>
      </trkpt>
      <trkpt lat="43.6788" lon="3.10081">
        <ele>439</ele>
        <time>2024-03-07T15:35:42+01:00</time>
      </trkpt>
      <trkpt lat="43.67879" lon="3.10088">
        <ele>441</ele>
        <time>2024-03-07T15:36:27+01:00</time>
      </trkpt>
      <trkpt lat="43.67872" lon="3.10096">
        <ele>442</ele>
        <time>2024-03-07T15:36:37+01:00</time>
      </trkpt>
      <trkpt lat="43.67866" lon="3.10111">
        <ele>445</ele>
        <time>2024-03-07T15:36:47+01:00</time>
      </trkpt>
      <trkpt lat="43.67858" lon="3.10124">
        <ele>445</ele>
        <time>2024-03-07T15:36:57+01:00</time>
      </trkpt>
      <trkpt lat="43.67853" lon="3.10138">
        <ele>446</ele>
        <time>2024-03-07T15:37:07+01:00</time>
      </trkpt>
      <trkpt lat="43.67849" lon="3.1015">
        <ele>447</ele>
        <time>2024-03-07T15:37:17+01:00</time>
      </trkpt>
      <trkpt lat="43.67843" lon="3.10162">
        <ele>447</ele>
        <time>2024-03-07T15:37:27+01:00</time>
      </trkpt>
      <trkpt lat="43.67837" lon="3.10177">
        <ele>448</ele>
        <time>2024-03-07T15:37:37+01:00</time>
      </trkpt>
      <trkpt lat="43.67833" lon="3.10188">
        <ele>448</ele>
        <time>2024-03-07T15:37:47+01:00</time>
      </trkpt>
      <trkpt lat="43.6783" lon="3.10201">
        <ele>449</ele>
        <time>2024-03-07T15:37:57+01:00</time>
      </trkpt>
      <trkpt lat="43.67825" lon="3.10213">
        <ele>450</ele>
        <time>2024-03-07T15:38:07+01:00</time>
      </trkpt>
      <trkpt lat="43.6782" lon="3.10227">
        <ele>451</ele>
        <time>2024-03-07T15:38:17+01:00</time>
      </trkpt>
      <trkpt lat="43.67812" lon="3.10242">
        <ele>451</ele>
        <time>2024-03-07T15:38:27+01:00</time>
      </trkpt>
      <trkpt lat="43.67806" lon="3.10254">
        <ele>452</ele>
        <time>2024-03-07T15:38:37+01:00</time>
      </trkpt>
      <trkpt lat="43.67799" lon="3.10268">
        <ele>452</ele>
        <time>2024-03-07T15:38:47+01:00</time>
      </trkpt>
      <trkpt lat="43.67794" lon="3.1028">
        <ele>453</ele>
        <time>2024-03-07T15:38:57+01:00</time>
      </trkpt>
      <trkpt lat="43.67789" lon="3.10294">
        <ele>454</ele>
        <time>2024-03-07T15:39:07+01:00</time>
      </trkpt>
      <trkpt lat="43.67783" lon="3.10311">
        <ele>454</ele>
        <time>2024-03-07T15:39:17+01:00</time>
      </trkpt>
      <trkpt lat="43.67779" lon="3.10324">
        <ele>454</ele>
        <time>2024-03-07T15:39:27+01:00</time>
      </trkpt>
      <trkpt lat="43.67777" lon="3.10338">
        <ele>455</ele>
        <time>2024-03-07T15:39:37+01:00</time>
      </trkpt>
      <trkpt lat="43.67772" lon="3.10356">
        <ele>456</ele>
        <time>2024-03-07T15:39:47+01:00</time>
      </trkpt>
      <trkpt lat="43.67767" lon="3.1037">
        <ele>457</ele>
        <time>2024-03-07T15:39:57+01:00</time>
      </trkpt>
      <trkpt lat="43.67765" lon="3.10382">
        <ele>457</ele>
        <time>2024-03-07T15:40:07+01:00</time>
      </trkpt>
      <trkpt lat="43.67764" lon="3.10388">
        <ele>458</ele>
        <time>2024-03-07T15:40:15+01:00</time>
      </trkpt>
      <trkpt lat="43.67762" lon="3.10395">
        <ele>458</ele>
        <time>2024-03-07T15:40:17+01:00</time>
      </trkpt>
      <trkpt lat="43.67759" lon="3.10409">
        <ele>459</ele>
        <time>2024-03-07T15:40:27+01:00</time>
      </trkpt>
      <trkpt lat="43.67752" lon="3.10421">
        <ele>459</ele>
        <time>2024-03-07T15:40:37+01:00</time>
      </trkpt>
      <trkpt lat="43.67747" lon="3.10432">
        <ele>460</ele>
        <time>2024-03-07T15:40:47+01:00</time>
      </trkpt>
      <trkpt lat="43.67738" lon="3.10447">
        <ele>461</ele>
        <time>2024-03-07T15:40:57+01:00</time>
      </trkpt>
      <trkpt lat="43.67732" lon="3.10459">
        <ele>463</ele>
        <time>2024-03-07T15:41:07+01:00</time>
      </trkpt>
      <trkpt lat="43.67726" lon="3.10473">
        <ele>466</ele>
        <time>2024-03-07T15:41:17+01:00</time>
      </trkpt>
      <trkpt lat="43.67719" lon="3.10487">
        <ele>467</ele>
        <time>2024-03-07T15:41:27+01:00</time>
      </trkpt>
      <trkpt lat="43.6771" lon="3.10496">
        <ele>468</ele>
        <time>2024-03-07T15:41:37+01:00</time>
      </trkpt>
      <trkpt lat="43.67702" lon="3.10506">
        <ele>468</ele>
        <time>2024-03-07T15:41:47+01:00</time>
      </trkpt>
      <trkpt lat="43.67694" lon="3.10518">
        <ele>469</ele>
        <time>2024-03-07T15:41:57+01:00</time>
      </trkpt>
      <trkpt lat="43.67687" lon="3.10533">
        <ele>470</ele>
        <time>2024-03-07T15:42:07+01:00</time>
      </trkpt>
      <trkpt lat="43.67678" lon="3.10544">
        <ele>470</ele>
        <time>2024-03-07T15:42:17+01:00</time>
      </trkpt>
      <trkpt lat="43.6767" lon="3.10556">
        <ele>470</ele>
        <time>2024-03-07T15:42:27+01:00</time>
      </trkpt>
      <trkpt lat="43.67664" lon="3.10569">
        <ele>471</ele>
        <time>2024-03-07T15:42:37+01:00</time>
      </trkpt>
      <trkpt lat="43.67659" lon="3.10581">
        <ele>472</ele>
        <time>2024-03-07T15:42:47+01:00</time>
      </trkpt>
      <trkpt lat="43.67653" lon="3.10597">
        <ele>472</ele>
        <time>2024-03-07T15:42:57+01:00</time>
      </trkpt>
      <trkpt lat="43.6765" lon="3.10617">
        <ele>473</ele>
        <time>2024-03-07T15:43:07+01:00</time>
      </trkpt>
      <trkpt lat="43.67646" lon="3.10633">
        <ele>474</ele>
        <time>2024-03-07T15:43:17+01:00</time>
      </trkpt>
      <trkpt lat="43.67645" lon="3.10648">
        <ele>475</ele>
        <time>2024-03-07T15:43:27+01:00</time>
      </trkpt>
      <trkpt lat="43.67642" lon="3.10663">
        <ele>475</ele>
        <time>2024-03-07T15:43:37+01:00</time>
      </trkpt>
      <trkpt lat="43.67639" lon="3.10676">
        <ele>476</ele>
        <time>2024-03-07T15:43:47+01:00</time>
      </trkpt>
      <trkpt lat="43.67643" lon="3.10679">
        <ele>477</ele>
        <time>2024-03-07T15:44:26+01:00</time>
      </trkpt>
      <trkpt lat="43.67643" lon="3.1068">
        <ele>477</ele>
        <time>2024-03-07T16:39:57+01:00</time>
      </trkpt>
      <trkpt lat="43.67637" lon="3.10704">
        <ele>477</ele>
        <time>2024-03-07T16:40:07+01:00</time>
      </trkpt>
      <trkpt lat="43.67635" lon="3.10718">
        <ele>476</ele>
        <time>2024-03-07T16:40:17+01:00</time>
      </trkpt>
      <trkpt lat="43.67633" lon="3.10735">
        <ele>475</ele>
        <time>2024-03-07T16:40:27+01:00</time>
      </trkpt>
      <trkpt lat="43.67629" lon="3.10751">
        <ele>474</ele>
        <time>2024-03-07T16:40:37+01:00</time>
      </trkpt>
      <trkpt lat="43.67625" lon="3.10769">
        <ele>472</ele>
        <time>2024-03-07T16:40:47+01:00</time>
      </trkpt>
      <trkpt lat="43.67625" lon="3.10785">
        <ele>471</ele>
        <time>2024-03-07T16:40:57+01:00</time>
      </trkpt>
      <trkpt lat="43.67616" lon="3.10803">
        <ele>468</ele>
        <time>2024-03-07T16:41:07+01:00</time>
      </trkpt>
      <trkpt lat="43.67608" lon="3.10813">
        <ele>465</ele>
        <time>2024-03-07T16:41:17+01:00</time>
      </trkpt>
      <trkpt lat="43.67598" lon="3.10817">
        <ele>464</ele>
        <time>2024-03-07T16:41:27+01:00</time>
      </trkpt>
      <trkpt lat="43.67598" lon="3.10817">
        <ele>464</ele>
        <time>2024-03-07T16:41:29+01:00</time>
      </trkpt>
      <trkpt lat="43.67587" lon="3.10824">
        <ele>463</ele>
        <time>2024-03-07T16:41:37+01:00</time>
      </trkpt>
      <trkpt lat="43.67575" lon="3.10827">
        <ele>462</ele>
        <time>2024-03-07T16:41:47+01:00</time>
      </trkpt>
      <trkpt lat="43.67562" lon="3.10828">
        <ele>460</ele>
        <time>2024-03-07T16:41:57+01:00</time>
      </trkpt>
      <trkpt lat="43.67549" lon="3.10823">
        <ele>461</ele>
        <time>2024-03-07T16:42:07+01:00</time>
      </trkpt>
      <trkpt lat="43.67535" lon="3.10818">
        <ele>461</ele>
        <time>2024-03-07T16:42:17+01:00</time>
      </trkpt>
      <trkpt lat="43.67523" lon="3.10816">
        <ele>461</ele>
        <time>2024-03-07T16:42:27+01:00</time>
      </trkpt>
      <trkpt lat="43.67509" lon="3.10816">
        <ele>460</ele>
        <time>2024-03-07T16:42:37+01:00</time>
      </trkpt>
      <trkpt lat="43.67495" lon="3.10816">
        <ele>459</ele>
        <time>2024-03-07T16:42:47+01:00</time>
      </trkpt>
      <trkpt lat="43.67481" lon="3.10817">
        <ele>459</ele>
        <time>2024-03-07T16:42:57+01:00</time>
      </trkpt>
      <trkpt lat="43.67467" lon="3.1082">
        <ele>459</ele>
        <time>2024-03-07T16:43:07+01:00</time>
      </trkpt>
      <trkpt lat="43.67454" lon="3.10819">
        <ele>461</ele>
        <time>2024-03-07T16:43:17+01:00</time>
      </trkpt>
      <trkpt lat="43.67444" lon="3.10824">
        <ele>461</ele>
        <time>2024-03-07T16:43:27+01:00</time>
      </trkpt>
      <trkpt lat="43.67431" lon="3.10833">
        <ele>462</ele>
        <time>2024-03-07T16:43:37+01:00</time>
      </trkpt>
      <trkpt lat="43.67419" lon="3.10847">
        <ele>462</ele>
        <time>2024-03-07T16:43:47+01:00</time>
      </trkpt>
      <trkpt lat="43.6741" lon="3.10864">
        <ele>461</ele>
        <time>2024-03-07T16:43:57+01:00</time>
      </trkpt>
      <trkpt lat="43.674" lon="3.10873">
        <ele>461</ele>
        <time>2024-03-07T16:44:07+01:00</time>
      </trkpt>
      <trkpt lat="43.67391" lon="3.10889">
        <ele>461</ele>
        <time>2024-03-07T16:44:17+01:00</time>
      </trkpt>
      <trkpt lat="43.6738" lon="3.10901">
        <ele>459</ele>
        <time>2024-03-07T16:44:27+01:00</time>
      </trkpt>
      <trkpt lat="43.67371" lon="3.10913">
        <ele>459</ele>
        <time>2024-03-07T16:44:37+01:00</time>
      </trkpt>
      <trkpt lat="43.67361" lon="3.10928">
        <ele>458</ele>
        <time>2024-03-07T16:44:47+01:00</time>
      </trkpt>
      <trkpt lat="43.67355" lon="3.10944">
        <ele>455</ele>
        <time>2024-03-07T16:44:57+01:00</time>
      </trkpt>
      <trkpt lat="43.67347" lon="3.10956">
        <ele>453</ele>
        <time>2024-03-07T16:45:07+01:00</time>
      </trkpt>
      <trkpt lat="43.67342" lon="3.10961">
        <ele>452</ele>
        <time>2024-03-07T16:45:14+01:00</time>
      </trkpt>
      <trkpt lat="43.67338" lon="3.10968">
        <ele>451</ele>
        <time>2024-03-07T16:45:17+01:00</time>
      </trkpt>
      <trkpt lat="43.67325" lon="3.10972">
        <ele>451</ele>
        <time>2024-03-07T16:45:27+01:00</time>
      </trkpt>
      <trkpt lat="43.6731" lon="3.10977">
        <ele>450</ele>
        <time>2024-03-07T16:45:37+01:00</time>
      </trkpt>
      <trkpt lat="43.67298" lon="3.10976">
        <ele>452</ele>
        <time>2024-03-07T16:45:47+01:00</time>
      </trkpt>
      <trkpt lat="43.67285" lon="3.10981">
        <ele>451</ele>
        <time>2024-03-07T16:45:57+01:00</time>
      </trkpt>
      <trkpt lat="43.6727" lon="3.10985">
        <ele>452</ele>
        <time>2024-03-07T16:46:07+01:00</time>
      </trkpt>
      <trkpt lat="43.67257" lon="3.1099">
        <ele>451</ele>
        <time>2024-03-07T16:46:17+01:00</time>
      </trkpt>
      <trkpt lat="43.67243" lon="3.11">
        <ele>450</ele>
        <time>2024-03-07T16:46:27+01:00</time>
      </trkpt>
      <trkpt lat="43.67231" lon="3.11011">
        <ele>449</ele>
        <time>2024-03-07T16:46:37+01:00</time>
      </trkpt>
      <trkpt lat="43.67218" lon="3.11021">
        <ele>448</ele>
        <time>2024-03-07T16:46:47+01:00</time>
      </trkpt>
      <trkpt lat="43.67206" lon="3.11035">
        <ele>447</ele>
        <time>2024-03-07T16:46:57+01:00</time>
      </trkpt>
      <trkpt lat="43.67197" lon="3.11045">
        <ele>446</ele>
        <time>2024-03-07T16:47:07+01:00</time>
      </trkpt>
      <trkpt lat="43.67189" lon="3.11057">
        <ele>445</ele>
        <time>2024-03-07T16:47:17+01:00</time>
      </trkpt>
      <trkpt lat="43.67178" lon="3.1107">
        <ele>444</ele>
        <time>2024-03-07T16:47:27+01:00</time>
      </trkpt>
      <trkpt lat="43.67168" lon="3.11083">
        <ele>443</ele>
        <time>2024-03-07T16:47:37+01:00</time>
      </trkpt>
      <trkpt lat="43.67156" lon="3.11093">
        <ele>442</ele>
        <time>2024-03-07T16:47:47+01:00</time>
      </trkpt>
      <trkpt lat="43.67143" lon="3.11101">
        <ele>442</ele>
        <time>2024-03-07T16:47:57+01:00</time>
      </trkpt>
      <trkpt lat="43.67131" lon="3.11109">
        <ele>441</ele>
        <time>2024-03-07T16:48:07+01:00</time>
      </trkpt>
      <trkpt lat="43.67124" lon="3.11108">
        <ele>441</ele>
        <time>2024-03-07T16:48:15+01:00</time>
      </trkpt>
      <trkpt lat="43.67119" lon="3.11111">
        <ele>440</ele>
        <time>2024-03-07T16:48:17+01:00</time>
      </trkpt>
      <trkpt lat="43.67108" lon="3.11118">
        <ele>440</ele>
        <time>2024-03-07T16:48:27+01:00</time>
      </trkpt>
      <trkpt lat="43.67099" lon="3.11129">
        <ele>439</ele>
        <time>2024-03-07T16:48:37+01:00</time>
      </trkpt>
      <trkpt lat="43.67086" lon="3.11141">
        <ele>439</ele>
        <time>2024-03-07T16:48:47+01:00</time>
      </trkpt>
      <trkpt lat="43.67079" lon="3.11153">
        <ele>439</ele>
        <time>2024-03-07T16:48:57+01:00</time>
      </trkpt>
      <trkpt lat="43.6707" lon="3.11172">
        <ele>439</ele>
        <time>2024-03-07T16:49:07+01:00</time>
      </trkpt>
      <trkpt lat="43.67062" lon="3.11184">
        <ele>439</ele>
        <time>2024-03-07T16:49:17+01:00</time>
      </trkpt>
      <trkpt lat="43.67053" lon="3.11186">
        <ele>439</ele>
        <time>2024-03-07T16:49:27+01:00</time>
      </trkpt>
      <trkpt lat="43.67043" lon="3.11193">
        <ele>438</ele>
        <time>2024-03-07T16:49:37+01:00</time>
      </trkpt>
      <trkpt lat="43.67042" lon="3.11194">
        <ele>438</ele>
        <time>2024-03-07T16:49:42+01:00</time>
      </trkpt>
      <trkpt lat="43.67033" lon="3.11206">
        <ele>438</ele>
        <time>2024-03-07T16:49:52+01:00</time>
      </trkpt>
      <trkpt lat="43.67025" lon="3.11218">
        <ele>439</ele>
        <time>2024-03-07T16:50:02+01:00</time>
      </trkpt>
      <trkpt lat="43.67019" lon="3.11228">
        <ele>440</ele>
        <time>2024-03-07T16:50:12+01:00</time>
      </trkpt>
      <trkpt lat="43.67007" lon="3.11242">
        <ele>440</ele>
        <time>2024-03-07T16:50:27+01:00</time>
      </trkpt>
      <trkpt lat="43.67" lon="3.11256">
        <ele>440</ele>
        <time>2024-03-07T16:50:42+01:00</time>
      </trkpt>
      <trkpt lat="43.66992" lon="3.11262">
        <ele>442</ele>
        <time>2024-03-07T16:50:52+01:00</time>
      </trkpt>
      <trkpt lat="43.66991" lon="3.11263">
        <ele>442</ele>
        <time>2024-03-07T16:51:28+01:00</time>
      </trkpt>
      <trkpt lat="43.66981" lon="3.11259">
        <ele>443</ele>
        <time>2024-03-07T16:51:47+01:00</time>
      </trkpt>
      <trkpt lat="43.66972" lon="3.11263">
        <ele>445</ele>
        <time>2024-03-07T16:51:57+01:00</time>
      </trkpt>
      <trkpt lat="43.66967" lon="3.11275">
        <ele>448</ele>
        <time>2024-03-07T16:52:12+01:00</time>
      </trkpt>
      <trkpt lat="43.66962" lon="3.11288">
        <ele>450</ele>
        <time>2024-03-07T16:52:27+01:00</time>
      </trkpt>
      <trkpt lat="43.66956" lon="3.11298">
        <ele>452</ele>
        <time>2024-03-07T16:52:37+01:00</time>
      </trkpt>
      <trkpt lat="43.66951" lon="3.1131">
        <ele>455</ele>
        <time>2024-03-07T16:52:52+01:00</time>
      </trkpt>
      <trkpt lat="43.66946" lon="3.11326">
        <ele>458</ele>
        <time>2024-03-07T16:53:07+01:00</time>
      </trkpt>
      <trkpt lat="43.66938" lon="3.11339">
        <ele>460</ele>
        <time>2024-03-07T16:53:22+01:00</time>
      </trkpt>
      <trkpt lat="43.66931" lon="3.11347">
        <ele>461</ele>
        <time>2024-03-07T16:53:32+01:00</time>
      </trkpt>
      <trkpt lat="43.66922" lon="3.11355">
        <ele>463</ele>
        <time>2024-03-07T16:53:42+01:00</time>
      </trkpt>
      <trkpt lat="43.66915" lon="3.11363">
        <ele>465</ele>
        <time>2024-03-07T16:53:52+01:00</time>
      </trkpt>
      <trkpt lat="43.66909" lon="3.11377">
        <ele>467</ele>
        <time>2024-03-07T16:54:07+01:00</time>
      </trkpt>
      <trkpt lat="43.66902" lon="3.11389">
        <ele>468</ele>
        <time>2024-03-07T16:54:37+01:00</time>
      </trkpt>
      <trkpt lat="43.66893" lon="3.114">
        <ele>468</ele>
        <time>2024-03-07T16:55:07+01:00</time>
      </trkpt>
      <trkpt lat="43.66886" lon="3.11407">
        <ele>467</ele>
        <time>2024-03-07T16:55:22+01:00</time>
      </trkpt>
      <trkpt lat="43.66886" lon="3.11407">
        <ele>467</ele>
        <time>2024-03-07T16:55:36+01:00</time>
      </trkpt>
      <trkpt lat="43.66888" lon="3.11399">
        <ele>468</ele>
        <time>2024-03-07T16:56:37+01:00</time>
      </trkpt>
      <trkpt lat="43.66893" lon="3.11399">
        <ele>468</ele>
        <time>2024-03-07T16:56:52+01:00</time>
      </trkpt>
      <trkpt lat="43.66884" lon="3.11405">
        <ele>467</ele>
        <time>2024-03-07T16:57:07+01:00</time>
      </trkpt>
      <trkpt lat="43.66883" lon="3.11418">
        <ele>467</ele>
        <time>2024-03-07T16:57:17+01:00</time>
      </trkpt>
      <trkpt lat="43.66881" lon="3.11402">
        <ele>466</ele>
        <time>2024-03-07T16:57:37+01:00</time>
      </trkpt>
      <trkpt lat="43.66888" lon="3.11395">
        <ele>468</ele>
        <time>2024-03-07T16:57:57+01:00</time>
      </trkpt>
      <trkpt lat="43.66899" lon="3.11384">
        <ele>467</ele>
        <time>2024-03-07T16:58:37+01:00</time>
      </trkpt>
      <trkpt lat="43.66908" lon="3.11376">
        <ele>466</ele>
        <time>2024-03-07T16:59:17+01:00</time>
      </trkpt>
      <trkpt lat="43.66916" lon="3.11366">
        <ele>466</ele>
        <time>2024-03-07T16:59:47+01:00</time>
      </trkpt>
      <trkpt lat="43.66923" lon="3.11357">
        <ele>463</ele>
        <time>2024-03-07T16:59:57+01:00</time>
      </trkpt>
      <trkpt lat="43.66932" lon="3.11348">
        <ele>461</ele>
        <time>2024-03-07T17:00:07+01:00</time>
      </trkpt>
      <trkpt lat="43.66939" lon="3.11332">
        <ele>460</ele>
        <time>2024-03-07T17:03:17+01:00</time>
      </trkpt>
      <trkpt lat="43.66947" lon="3.11319">
        <ele>457</ele>
        <time>2024-03-07T17:03:32+01:00</time>
      </trkpt>
      <trkpt lat="43.66951" lon="3.11308">
        <ele>455</ele>
        <time>2024-03-07T17:03:52+01:00</time>
      </trkpt>
      <trkpt lat="43.66958" lon="3.11297">
        <ele>452</ele>
        <time>2024-03-07T17:04:02+01:00</time>
      </trkpt>
      <trkpt lat="43.66963" lon="3.11286">
        <ele>450</ele>
        <time>2024-03-07T17:04:12+01:00</time>
      </trkpt>
      <trkpt lat="43.66968" lon="3.11272">
        <ele>448</ele>
        <time>2024-03-07T17:04:57+01:00</time>
      </trkpt>
      <trkpt lat="43.66978" lon="3.11257">
        <ele>443</ele>
        <time>2024-03-07T17:05:17+01:00</time>
      </trkpt>
      <trkpt lat="43.6699" lon="3.1126">
        <ele>442</ele>
        <time>2024-03-07T17:05:27+01:00</time>
      </trkpt>
      <trkpt lat="43.66995" lon="3.11274">
        <ele>443</ele>
        <time>2024-03-07T17:05:37+01:00</time>
      </trkpt>
      <trkpt lat="43.6701" lon="3.11279">
        <ele>441</ele>
        <time>2024-03-07T17:05:52+01:00</time>
      </trkpt>
      <trkpt lat="43.67018" lon="3.11287">
        <ele>440</ele>
        <time>2024-03-07T17:06:02+01:00</time>
      </trkpt>
      <trkpt lat="43.67015" lon="3.11301">
        <ele>439</ele>
        <time>2024-03-07T17:06:12+01:00</time>
      </trkpt>
      <trkpt lat="43.67016" lon="3.11303">
        <ele>439</ele>
        <time>2024-03-07T17:06:48+01:00</time>
      </trkpt>
      <trkpt lat="43.67021" lon="3.1131">
        <ele>438</ele>
        <time>2024-03-07T17:07:07+01:00</time>
      </trkpt>
      <trkpt lat="43.67029" lon="3.11317">
        <ele>436</ele>
        <time>2024-03-07T17:07:17+01:00</time>
      </trkpt>
      <trkpt lat="43.67038" lon="3.11324">
        <ele>432</ele>
        <time>2024-03-07T17:07:32+01:00</time>
      </trkpt>
      <trkpt lat="43.67045" lon="3.11341">
        <ele>429</ele>
        <time>2024-03-07T17:08:52+01:00</time>
      </trkpt>
      <trkpt lat="43.67052" lon="3.11351">
        <ele>425</ele>
        <time>2024-03-07T17:09:02+01:00</time>
      </trkpt>
      <trkpt lat="43.67058" lon="3.11372">
        <ele>422</ele>
        <time>2024-03-07T17:09:22+01:00</time>
      </trkpt>
      <trkpt lat="43.67058" lon="3.11387">
        <ele>420</ele>
        <time>2024-03-07T17:09:32+01:00</time>
      </trkpt>
      <trkpt lat="43.67065" lon="3.11402">
        <ele>417</ele>
        <time>2024-03-07T17:09:47+01:00</time>
      </trkpt>
      <trkpt lat="43.67073" lon="3.11411">
        <ele>414</ele>
        <time>2024-03-07T17:10:17+01:00</time>
      </trkpt>
      <trkpt lat="43.67076" lon="3.11425">
        <ele>411</ele>
        <time>2024-03-07T17:10:32+01:00</time>
      </trkpt>
      <trkpt lat="43.67083" lon="3.11441">
        <ele>408</ele>
        <time>2024-03-07T17:10:47+01:00</time>
      </trkpt>
      <trkpt lat="43.67093" lon="3.11448">
        <ele>405</ele>
        <time>2024-03-07T17:10:57+01:00</time>
      </trkpt>
      <trkpt lat="43.67098" lon="3.11465">
        <ele>402</ele>
        <time>2024-03-07T17:11:07+01:00</time>
      </trkpt>
      <trkpt lat="43.67099" lon="3.11482">
        <ele>400</ele>
        <time>2024-03-07T17:11:17+01:00</time>
      </trkpt>
      <trkpt lat="43.67099" lon="3.11497">
        <ele>398</ele>
        <time>2024-03-07T17:11:27+01:00</time>
      </trkpt>
      <trkpt lat="43.67095" lon="3.11511">
        <ele>397</ele>
        <time>2024-03-07T17:11:37+01:00</time>
      </trkpt>
      <trkpt lat="43.67096" lon="3.11525">
        <ele>394</ele>
        <time>2024-03-07T17:11:47+01:00</time>
      </trkpt>
      <trkpt lat="43.67099" lon="3.11544">
        <ele>390</ele>
        <time>2024-03-07T17:12:02+01:00</time>
      </trkpt>
      <trkpt lat="43.67102" lon="3.11557">
        <ele>387</ele>
        <time>2024-03-07T17:12:12+01:00</time>
      </trkpt>
      <trkpt lat="43.67102" lon="3.11576">
        <ele>384</ele>
        <time>2024-03-07T17:12:52+01:00</time>
      </trkpt>
      <trkpt lat="43.67101" lon="3.11592">
        <ele>382</ele>
        <time>2024-03-07T17:13:07+01:00</time>
      </trkpt>
      <trkpt lat="43.67109" lon="3.11603">
        <ele>378</ele>
        <time>2024-03-07T17:13:22+01:00</time>
      </trkpt>
      <trkpt lat="43.67114" lon="3.11617">
        <ele>374</ele>
        <time>2024-03-07T17:13:37+01:00</time>
      </trkpt>
      <trkpt lat="43.67119" lon="3.11627">
        <ele>371</ele>
        <time>2024-03-07T17:13:47+01:00</time>
      </trkpt>
      <trkpt lat="43.67127" lon="3.11615">
        <ele>371</ele>
        <time>2024-03-07T17:14:07+01:00</time>
      </trkpt>
      <trkpt lat="43.67136" lon="3.11601">
        <ele>370</ele>
        <time>2024-03-07T17:14:17+01:00</time>
      </trkpt>
      <trkpt lat="43.67146" lon="3.11593">
        <ele>368</ele>
        <time>2024-03-07T17:14:27+01:00</time>
      </trkpt>
      <trkpt lat="43.67161" lon="3.11587">
        <ele>364</ele>
        <time>2024-03-07T17:14:37+01:00</time>
      </trkpt>
      <trkpt lat="43.6717" lon="3.11576">
        <ele>364</ele>
        <time>2024-03-07T17:14:47+01:00</time>
      </trkpt>
      <trkpt lat="43.6718" lon="3.11564">
        <ele>363</ele>
        <time>2024-03-07T17:14:57+01:00</time>
      </trkpt>
      <trkpt lat="43.67192" lon="3.11555">
        <ele>362</ele>
        <time>2024-03-07T17:15:07+01:00</time>
      </trkpt>
      <trkpt lat="43.67201" lon="3.11543">
        <ele>362</ele>
        <time>2024-03-07T17:15:17+01:00</time>
      </trkpt>
      <trkpt lat="43.67214" lon="3.11545">
        <ele>359</ele>
        <time>2024-03-07T17:15:27+01:00</time>
      </trkpt>
      <trkpt lat="43.67211" lon="3.1156">
        <ele>358</ele>
        <time>2024-03-07T17:15:37+01:00</time>
      </trkpt>
      <trkpt lat="43.6721" lon="3.11583">
        <ele>355</ele>
        <time>2024-03-07T17:15:47+01:00</time>
      </trkpt>
      <trkpt lat="43.67208" lon="3.11601">
        <ele>354</ele>
        <time>2024-03-07T17:15:57+01:00</time>
      </trkpt>
      <trkpt lat="43.67204" lon="3.11623">
        <ele>352</ele>
        <time>2024-03-07T17:16:07+01:00</time>
      </trkpt>
      <trkpt lat="43.67197" lon="3.11643">
        <ele>350</ele>
        <time>2024-03-07T17:16:17+01:00</time>
      </trkpt>
      <trkpt lat="43.67188" lon="3.11656">
        <ele>350</ele>
        <time>2024-03-07T17:16:27+01:00</time>
      </trkpt>
      <trkpt lat="43.67177" lon="3.11671">
        <ele>349</ele>
        <time>2024-03-07T17:16:37+01:00</time>
      </trkpt>
      <trkpt lat="43.67185" lon="3.11686">
        <ele>347</ele>
        <time>2024-03-07T17:16:52+01:00</time>
      </trkpt>
      <trkpt lat="43.67201" lon="3.11685">
        <ele>346</ele>
        <time>2024-03-07T17:17:02+01:00</time>
      </trkpt>
      <trkpt lat="43.67214" lon="3.1169">
        <ele>344</ele>
        <time>2024-03-07T17:17:12+01:00</time>
      </trkpt>
      <trkpt lat="43.67206" lon="3.11707">
        <ele>343</ele>
        <time>2024-03-07T17:17:22+01:00</time>
      </trkpt>
      <trkpt lat="43.67198" lon="3.11721">
        <ele>342</ele>
        <time>2024-03-07T17:17:32+01:00</time>
      </trkpt>
      <trkpt lat="43.67191" lon="3.11738">
        <ele>341</ele>
        <time>2024-03-07T17:17:42+01:00</time>
      </trkpt>
      <trkpt lat="43.67194" lon="3.11754">
        <ele>339</ele>
        <time>2024-03-07T17:17:52+01:00</time>
      </trkpt>
      <trkpt lat="43.67199" lon="3.11774">
        <ele>336</ele>
        <time>2024-03-07T17:18:02+01:00</time>
      </trkpt>
      <trkpt lat="43.67207" lon="3.11791">
        <ele>333</ele>
        <time>2024-03-07T17:18:12+01:00</time>
      </trkpt>
      <trkpt lat="43.67218" lon="3.11805">
        <ele>331</ele>
        <time>2024-03-07T17:18:22+01:00</time>
      </trkpt>
      <trkpt lat="43.6723" lon="3.11814">
        <ele>330</ele>
        <time>2024-03-07T17:18:32+01:00</time>
      </trkpt>
      <trkpt lat="43.67242" lon="3.11821">
        <ele>329</ele>
        <time>2024-03-07T17:18:42+01:00</time>
      </trkpt>
      <trkpt lat="43.67245" lon="3.11835">
        <ele>328</ele>
        <time>2024-03-07T17:18:52+01:00</time>
      </trkpt>
      <trkpt lat="43.67242" lon="3.11847">
        <ele>327</ele>
        <time>2024-03-07T17:19:02+01:00</time>
      </trkpt>
      <trkpt lat="43.67255" lon="3.11846">
        <ele>327</ele>
        <time>2024-03-07T17:19:12+01:00</time>
      </trkpt>
      <trkpt lat="43.67265" lon="3.11837">
        <ele>327</ele>
        <time>2024-03-07T17:19:17+01:00</time>
      </trkpt>
      <trkpt lat="43.67274" lon="3.11833">
        <ele>327</ele>
        <time>2024-03-07T17:19:22+01:00</time>
      </trkpt>
      <trkpt lat="43.67284" lon="3.11828">
        <ele>327</ele>
        <time>2024-03-07T17:19:32+01:00</time>
      </trkpt>
      <trkpt lat="43.67297" lon="3.11825">
        <ele>326</ele>
        <time>2024-03-07T17:19:42+01:00</time>
      </trkpt>
      <trkpt lat="43.67312" lon="3.1182">
        <ele>324</ele>
        <time>2024-03-07T17:19:52+01:00</time>
      </trkpt>
      <trkpt lat="43.67321" lon="3.11818">
        <ele>323</ele>
        <time>2024-03-07T17:19:57+01:00</time>
      </trkpt>
      <trkpt lat="43.67337" lon="3.11819">
        <ele>320</ele>
        <time>2024-03-07T17:20:07+01:00</time>
      </trkpt>
      <trkpt lat="43.67352" lon="3.11818">
        <ele>318</ele>
        <time>2024-03-07T17:20:17+01:00</time>
      </trkpt>
      <trkpt lat="43.67369" lon="3.11817">
        <ele>316</ele>
        <time>2024-03-07T17:20:27+01:00</time>
      </trkpt>
      <trkpt lat="43.6738" lon="3.11822">
        <ele>314</ele>
        <time>2024-03-07T17:20:37+01:00</time>
      </trkpt>
      <trkpt lat="43.67394" lon="3.11827">
        <ele>314</ele>
        <time>2024-03-07T17:20:52+01:00</time>
      </trkpt>
      <trkpt lat="43.67404" lon="3.11829">
        <ele>314</ele>
        <time>2024-03-07T17:20:57+01:00</time>
      </trkpt>
      <trkpt lat="43.67414" lon="3.1183">
        <ele>314</ele>
        <time>2024-03-07T17:21:02+01:00</time>
      </trkpt>
      <trkpt lat="43.67423" lon="3.11833">
        <ele>313</ele>
        <time>2024-03-07T17:21:07+01:00</time>
      </trkpt>
      <trkpt lat="43.67435" lon="3.1183">
        <ele>312</ele>
        <time>2024-03-07T17:21:17+01:00</time>
      </trkpt>
      <trkpt lat="43.67453" lon="3.1183">
        <ele>311</ele>
        <time>2024-03-07T17:21:27+01:00</time>
      </trkpt>
      <trkpt lat="43.67466" lon="3.11825">
        <ele>311</ele>
        <time>2024-03-07T17:21:37+01:00</time>
      </trkpt>
      <trkpt lat="43.67477" lon="3.11811">
        <ele>311</ele>
        <time>2024-03-07T17:21:47+01:00</time>
      </trkpt>
      <trkpt lat="43.67486" lon="3.11796">
        <ele>311</ele>
        <time>2024-03-07T17:21:57+01:00</time>
      </trkpt>
      <trkpt lat="43.67497" lon="3.11783">
        <ele>311</ele>
        <time>2024-03-07T17:22:07+01:00</time>
      </trkpt>
      <trkpt lat="43.67508" lon="3.11778">
        <ele>311</ele>
        <time>2024-03-07T17:22:17+01:00</time>
      </trkpt>
      <trkpt lat="43.67521" lon="3.11786">
        <ele>310</ele>
        <time>2024-03-07T17:22:27+01:00</time>
      </trkpt>
      <trkpt lat="43.67536" lon="3.11792">
        <ele>310</ele>
        <time>2024-03-07T17:22:37+01:00</time>
      </trkpt>
      <trkpt lat="43.67547" lon="3.11797">
        <ele>310</ele>
        <time>2024-03-07T17:22:47+01:00</time>
      </trkpt>
      <trkpt lat="43.67561" lon="3.11807">
        <ele>310</ele>
        <time>2024-03-07T17:22:57+01:00</time>
      </trkpt>
      <trkpt lat="43.67571" lon="3.11818">
        <ele>311</ele>
        <time>2024-03-07T17:23:07+01:00</time>
      </trkpt>
      <trkpt lat="43.67581" lon="3.11828">
        <ele>312</ele>
        <time>2024-03-07T17:23:17+01:00</time>
      </trkpt>
      <trkpt lat="43.67594" lon="3.11828">
        <ele>314</ele>
        <time>2024-03-07T17:23:27+01:00</time>
      </trkpt>
      <trkpt lat="43.67604" lon="3.11819">
        <ele>315</ele>
        <time>2024-03-07T17:23:37+01:00</time>
      </trkpt>
      <trkpt lat="43.67616" lon="3.1181">
        <ele>315</ele>
        <time>2024-03-07T17:23:47+01:00</time>
      </trkpt>
      <trkpt lat="43.67623" lon="3.11797">
        <ele>315</ele>
        <time>2024-03-07T17:23:57+01:00</time>
      </trkpt>
      <trkpt lat="43.67631" lon="3.11783">
        <ele>315</ele>
        <time>2024-03-07T17:24:07+01:00</time>
      </trkpt>
      <trkpt lat="43.6764" lon="3.11771">
        <ele>315</ele>
        <time>2024-03-07T17:24:17+01:00</time>
      </trkpt>
      <trkpt lat="43.67652" lon="3.11756">
        <ele>317</ele>
        <time>2024-03-07T17:24:27+01:00</time>
      </trkpt>
      <trkpt lat="43.67662" lon="3.11742">
        <ele>318</ele>
        <time>2024-03-07T17:24:37+01:00</time>
      </trkpt>
      <trkpt lat="43.67673" lon="3.11727">
        <ele>320</ele>
        <time>2024-03-07T17:24:47+01:00</time>
      </trkpt>
      <trkpt lat="43.67681" lon="3.11716">
        <ele>321</ele>
        <time>2024-03-07T17:24:57+01:00</time>
      </trkpt>
      <trkpt lat="43.67689" lon="3.11708">
        <ele>321</ele>
        <time>2024-03-07T17:25:07+01:00</time>
      </trkpt>
      <trkpt lat="43.67698" lon="3.11692">
        <ele>321</ele>
        <time>2024-03-07T17:25:17+01:00</time>
      </trkpt>
      <trkpt lat="43.67708" lon="3.11675">
        <ele>322</ele>
        <time>2024-03-07T17:25:27+01:00</time>
      </trkpt>
      <trkpt lat="43.67717" lon="3.11662">
        <ele>321</ele>
        <time>2024-03-07T17:25:37+01:00</time>
      </trkpt>
      <trkpt lat="43.67727" lon="3.11651">
        <ele>322</ele>
        <time>2024-03-07T17:25:47+01:00</time>
      </trkpt>
      <trkpt lat="43.67736" lon="3.11634">
        <ele>320</ele>
        <time>2024-03-07T17:25:57+01:00</time>
      </trkpt>
      <trkpt lat="43.67744" lon="3.11617">
        <ele>319</ele>
        <time>2024-03-07T17:26:07+01:00</time>
      </trkpt>
      <trkpt lat="43.67753" lon="3.11602">
        <ele>319</ele>
        <time>2024-03-07T17:26:17+01:00</time>
      </trkpt>
      <trkpt lat="43.67762" lon="3.1159">
        <ele>319</ele>
        <time>2024-03-07T17:26:27+01:00</time>
      </trkpt>
      <trkpt lat="43.67774" lon="3.11576">
        <ele>319</ele>
        <time>2024-03-07T17:26:37+01:00</time>
      </trkpt>
      <trkpt lat="43.67786" lon="3.11564">
        <ele>319</ele>
        <time>2024-03-07T17:26:47+01:00</time>
      </trkpt>
      <trkpt lat="43.67798" lon="3.11554">
        <ele>320</ele>
        <time>2024-03-07T17:26:57+01:00</time>
      </trkpt>
      <trkpt lat="43.67812" lon="3.11545">
        <ele>321</ele>
        <time>2024-03-07T17:27:07+01:00</time>
      </trkpt>
      <trkpt lat="43.67817" lon="3.11532">
        <ele>320</ele>
        <time>2024-03-07T17:27:17+01:00</time>
      </trkpt>
      <trkpt lat="43.67826" lon="3.11519">
        <ele>320</ele>
        <time>2024-03-07T17:27:27+01:00</time>
      </trkpt>
      <trkpt lat="43.67835" lon="3.11507">
        <ele>319</ele>
        <time>2024-03-07T17:27:37+01:00</time>
      </trkpt>
      <trkpt lat="43.67844" lon="3.11494">
        <ele>319</ele>
        <time>2024-03-07T17:27:47+01:00</time>
      </trkpt>
      <trkpt lat="43.67854" lon="3.11476">
        <ele>318</ele>
        <time>2024-03-07T13:40:37+01:00</time>
      </trkpt>
      <trkpt lat="43.67845" lon="3.11468">
        <ele>316</ele>
      </trkpt>
    </trkseg>
  </trk>
</gpx>